
<gpx xmlns="http://www.topografix.com/GPX/1/1" xmlns:gpxx="http://www.garmin.com/xmlschemas/GpxExtensions/v3" xmlns:xsi="http://www.w3.org/2001/XMLSchema-instance" version="1.1" creator="Adze - https://getadze.com/" xsi:schemaLocation="http://www.topografix.com/GPX/1/1 http://www.topografix.com/GPX/1/1/gpx.xsd http://www.garmin.com/xmlschemas/GpxExtensions/v3 http://www.garmin.com/xmlschemas/GpxExtensionsv3.xsd">
    <metadata>
        <name>Untitled Document</name>
        <link href="http://www.garmin.com"></link>
        <time>2018-03-08T03:42:37.924Z</time>
    </metadata>
    <wpt lon="99.680498" lat="12.899862">
        <ele>106.000000</ele>
        <name>Kaeng Krachan Resort</name>
        <cmt>20-FEB-09 15:07:44</cmt>
        <desc>20-FEB-09 15:07:44</desc>
        <sym>Lodge</sym>
        <extensions>
            <gpxx:WaypointExtension xmlns:gpxx="http://www.garmin.com/xmlschemas/GpxExtensions/v3">
                <gpxx:DisplayMode>SymbolOnly</gpxx:DisplayMode>
            </gpxx:WaypointExtension>
        </extensions>
    </wpt>
    <wpt lon="99.684260" lat="12.904893">
        <ele>109.000000</ele>
        <name>Febraury 2009 - Saturday water</name>
        <cmt>21-FEB-09 15:07:27</cmt>
        <desc>21-FEB-09 15:07:27</desc>
        <sym>Drinking Water</sym>
        <extensions>
            <gpxx:WaypointExtension xmlns:gpxx="http://www.garmin.com/xmlschemas/GpxExtensions/v3">
                <gpxx:DisplayMode>SymbolOnly</gpxx:DisplayMode>
            </gpxx:WaypointExtension>
        </extensions>
    </wpt>
    <trk>
        <name>Febraury 2009 - Saturday</name>
        <extensions>
            <gpxx:TrackExtension xmlns:gpxx="http://www.garmin.com/xmlschemas/GpxExtensions/v3">
                <gpxx:DisplayColor>Red</gpxx:DisplayColor>
            </gpxx:TrackExtension>
        </extensions>
        <trkseg>
            <trkpt lon="99.680489" lat="12.899830">
                <ele>98.672485</ele>
                <time>2009-02-21T05:48:53Z</time>
            </trkpt>
            <trkpt lon="99.680485" lat="12.899855">
                <ele>98.672485</ele>
                <time>2009-02-21T05:49:00Z</time>
            </trkpt>
            <trkpt lon="99.680616" lat="12.900022">
                <ele>99.633789</ele>
                <time>2009-02-21T05:49:20Z</time>
            </trkpt>
            <trkpt lon="99.680626" lat="12.900031">
                <ele>99.633789</ele>
                <time>2009-02-21T05:49:39Z</time>
            </trkpt>
            <trkpt lon="99.680631" lat="12.900042">
                <ele>100.595093</ele>
                <time>2009-02-21T05:49:50Z</time>
            </trkpt>
            <trkpt lon="99.680685" lat="12.900059">
                <ele>100.595093</ele>
                <time>2009-02-21T05:50:48Z</time>
            </trkpt>
            <trkpt lon="99.680684" lat="12.900053">
                <ele>100.595093</ele>
                <time>2009-02-21T05:50:59Z</time>
            </trkpt>
            <trkpt lon="99.680694" lat="12.900046">
                <ele>97.711182</ele>
                <time>2009-02-21T05:52:37Z</time>
            </trkpt>
            <trkpt lon="99.680662" lat="12.900067">
                <ele>101.556397</ele>
                <time>2009-02-21T05:59:36Z</time>
            </trkpt>
            <trkpt lon="99.680327" lat="12.899988">
                <ele>100.595093</ele>
                <time>2009-02-21T05:59:50Z</time>
            </trkpt>
            <trkpt lon="99.679688" lat="12.899890">
                <ele>102.517700</ele>
                <time>2009-02-21T06:00:11Z</time>
            </trkpt>
            <trkpt lon="99.679077" lat="12.899863">
                <ele>104.440430</ele>
                <time>2009-02-21T06:00:31Z</time>
            </trkpt>
            <trkpt lon="99.678356" lat="12.899616">
                <ele>105.401733</ele>
                <time>2009-02-21T06:00:52Z</time>
            </trkpt>
            <trkpt lon="99.678188" lat="12.899259">
                <ele>105.882446</ele>
                <time>2009-02-21T06:01:03Z</time>
            </trkpt>
            <trkpt lon="99.678118" lat="12.898878">
                <ele>109.246948</ele>
                <time>2009-02-21T06:01:20Z</time>
            </trkpt>
            <trkpt lon="99.678074" lat="12.898511">
                <ele>113.572998</ele>
                <time>2009-02-21T06:01:40Z</time>
            </trkpt>
            <trkpt lon="99.678055" lat="12.898157">
                <ele>116.937500</ele>
                <time>2009-02-21T06:02:00Z</time>
            </trkpt>
            <trkpt lon="99.678216" lat="12.897907">
                <ele>120.302124</ele>
                <time>2009-02-21T06:02:17Z</time>
            </trkpt>
            <trkpt lon="99.678568" lat="12.897783">
                <ele>122.224731</ele>
                <time>2009-02-21T06:02:35Z</time>
            </trkpt>
            <trkpt lon="99.679175" lat="12.897636">
                <ele>122.224731</ele>
                <time>2009-02-21T06:02:54Z</time>
            </trkpt>
            <trkpt lon="99.679833" lat="12.897337">
                <ele>118.860107</ele>
                <time>2009-02-21T06:03:07Z</time>
            </trkpt>
            <trkpt lon="99.680539" lat="12.897062">
                <ele>116.937500</ele>
                <time>2009-02-21T06:03:23Z</time>
            </trkpt>
            <trkpt lon="99.680607" lat="12.897040">
                <ele>116.937500</ele>
                <time>2009-02-21T06:03:25Z</time>
            </trkpt>
            <trkpt lon="99.680689" lat="12.896935">
                <ele>117.898804</ele>
                <time>2009-02-21T06:03:29Z</time>
            </trkpt>
            <trkpt lon="99.680914" lat="12.896474">
                <ele>120.782837</ele>
                <time>2009-02-21T06:03:45Z</time>
            </trkpt>
            <trkpt lon="99.681062" lat="12.896262">
                <ele>121.744141</ele>
                <time>2009-02-21T06:03:53Z</time>
            </trkpt>
            <trkpt lon="99.681231" lat="12.896206">
                <ele>120.782837</ele>
                <time>2009-02-21T06:03:57Z</time>
            </trkpt>
            <trkpt lon="99.681327" lat="12.896219">
                <ele>120.302124</ele>
                <time>2009-02-21T06:03:59Z</time>
            </trkpt>
            <trkpt lon="99.682044" lat="12.896484">
                <ele>114.534180</ele>
                <time>2009-02-21T06:04:13Z</time>
            </trkpt>
            <trkpt lon="99.682209" lat="12.896516">
                <ele>113.572998</ele>
                <time>2009-02-21T06:04:16Z</time>
            </trkpt>
            <trkpt lon="99.682474" lat="12.896494">
                <ele>113.572998</ele>
                <time>2009-02-21T06:04:21Z</time>
            </trkpt>
            <trkpt lon="99.682804" lat="12.896325">
                <ele>114.053589</ele>
                <time>2009-02-21T06:04:33Z</time>
            </trkpt>
            <trkpt lon="99.682886" lat="12.896246">
                <ele>117.418213</ele>
                <time>2009-02-21T06:04:48Z</time>
            </trkpt>
            <trkpt lon="99.682939" lat="12.896182">
                <ele>120.302124</ele>
                <time>2009-02-21T06:05:01Z</time>
            </trkpt>
            <trkpt lon="99.683090" lat="12.896098">
                <ele>126.550659</ele>
                <time>2009-02-21T06:05:23Z</time>
            </trkpt>
            <trkpt lon="99.683296" lat="12.896085">
                <ele>127.992554</ele>
                <time>2009-02-21T06:05:38Z</time>
            </trkpt>
            <trkpt lon="99.683722" lat="12.896083">
                <ele>125.108765</ele>
                <time>2009-02-21T06:05:54Z</time>
            </trkpt>
            <trkpt lon="99.684018" lat="12.896107">
                <ele>121.744141</ele>
                <time>2009-02-21T06:06:02Z</time>
            </trkpt>
            <trkpt lon="99.684189" lat="12.896211">
                <ele>120.782837</ele>
                <time>2009-02-21T06:06:06Z</time>
            </trkpt>
            <trkpt lon="99.684335" lat="12.896431">
                <ele>118.860107</ele>
                <time>2009-02-21T06:06:11Z</time>
            </trkpt>
            <trkpt lon="99.684411" lat="12.896532">
                <ele>118.379395</ele>
                <time>2009-02-21T06:06:13Z</time>
            </trkpt>
            <trkpt lon="99.685041" lat="12.897099">
                <ele>113.092285</ele>
                <time>2009-02-21T06:06:27Z</time>
            </trkpt>
            <trkpt lon="99.685267" lat="12.897118">
                <ele>112.130981</ele>
                <time>2009-02-21T06:06:33Z</time>
            </trkpt>
            <trkpt lon="99.685963" lat="12.896784">
                <ele>113.572998</ele>
                <time>2009-02-21T06:06:51Z</time>
            </trkpt>
            <trkpt lon="99.686579" lat="12.896611">
                <ele>114.053589</ele>
                <time>2009-02-21T06:07:09Z</time>
            </trkpt>
            <trkpt lon="99.687011" lat="12.896486">
                <ele>114.534180</ele>
                <time>2009-02-21T06:07:20Z</time>
            </trkpt>
            <trkpt lon="99.687726" lat="12.896137">
                <ele>111.169556</ele>
                <time>2009-02-21T06:07:33Z</time>
            </trkpt>
            <trkpt lon="99.688926" lat="12.895771">
                <ele>106.363037</ele>
                <time>2009-02-21T06:07:48Z</time>
            </trkpt>
            <trkpt lon="99.689120" lat="12.895711">
                <ele>105.401733</ele>
                <time>2009-02-21T06:07:51Z</time>
            </trkpt>
            <trkpt lon="99.689491" lat="12.895869">
                <ele>102.037109</ele>
                <time>2009-02-21T06:07:58Z</time>
            </trkpt>
            <trkpt lon="99.689702" lat="12.896109">
                <ele>100.114502</ele>
                <time>2009-02-21T06:08:03Z</time>
            </trkpt>
            <trkpt lon="99.690388" lat="12.896351">
                <ele>97.230469</ele>
                <time>2009-02-21T06:08:15Z</time>
            </trkpt>
            <trkpt lon="99.691026" lat="12.896516">
                <ele>95.307739</ele>
                <time>2009-02-21T06:08:25Z</time>
            </trkpt>
            <trkpt lon="99.691323" lat="12.896664">
                <ele>93.865845</ele>
                <time>2009-02-21T06:08:31Z</time>
            </trkpt>
            <trkpt lon="99.691631" lat="12.896559">
                <ele>91.462524</ele>
                <time>2009-02-21T06:08:39Z</time>
            </trkpt>
            <trkpt lon="99.691660" lat="12.896520">
                <ele>91.462524</ele>
                <time>2009-02-21T06:08:40Z</time>
            </trkpt>
            <trkpt lon="99.692000" lat="12.896018">
                <ele>89.059326</ele>
                <time>2009-02-21T06:08:51Z</time>
            </trkpt>
            <trkpt lon="99.692465" lat="12.894830">
                <ele>83.291382</ele>
                <time>2009-02-21T06:09:09Z</time>
            </trkpt>
            <trkpt lon="99.692848" lat="12.893719">
                <ele>82.330078</ele>
                <time>2009-02-21T06:09:26Z</time>
            </trkpt>
            <trkpt lon="99.693062" lat="12.893073">
                <ele>84.252685</ele>
                <time>2009-02-21T06:09:40Z</time>
            </trkpt>
            <trkpt lon="99.693274" lat="12.892335">
                <ele>76.562134</ele>
                <time>2009-02-21T06:09:51Z</time>
            </trkpt>
            <trkpt lon="99.693622" lat="12.891069">
                <ele>71.755493</ele>
                <time>2009-02-21T06:10:05Z</time>
            </trkpt>
            <trkpt lon="99.693646" lat="12.890935">
                <ele>71.755493</ele>
                <time>2009-02-21T06:10:08Z</time>
            </trkpt>
            <trkpt lon="99.693517" lat="12.890914">
                <ele>71.274902</ele>
                <time>2009-02-21T06:10:14Z</time>
            </trkpt>
            <trkpt lon="99.693404" lat="12.890925">
                <ele>71.755493</ele>
                <time>2009-02-21T06:10:19Z</time>
            </trkpt>
            <trkpt lon="99.692901" lat="12.890890">
                <ele>73.678223</ele>
                <time>2009-02-21T06:10:34Z</time>
            </trkpt>
            <trkpt lon="99.692537" lat="12.890784">
                <ele>74.639526</ele>
                <time>2009-02-21T06:10:45Z</time>
            </trkpt>
            <trkpt lon="99.692416" lat="12.890828">
                <ele>75.120239</ele>
                <time>2009-02-21T06:10:51Z</time>
            </trkpt>
            <trkpt lon="99.692205" lat="12.890750">
                <ele>77.042847</ele>
                <time>2009-02-21T06:11:01Z</time>
            </trkpt>
            <trkpt lon="99.692189" lat="12.890728">
                <ele>77.042847</ele>
                <time>2009-02-21T06:11:02Z</time>
            </trkpt>
            <trkpt lon="99.691860" lat="12.890605">
                <ele>78.484741</ele>
                <time>2009-02-21T06:11:16Z</time>
            </trkpt>
            <trkpt lon="99.691574" lat="12.890483">
                <ele>79.446045</ele>
                <time>2009-02-21T06:11:28Z</time>
            </trkpt>
            <trkpt lon="99.691268" lat="12.890404">
                <ele>81.849365</ele>
                <time>2009-02-21T06:11:42Z</time>
            </trkpt>
            <trkpt lon="99.690900" lat="12.890246">
                <ele>83.771973</ele>
                <time>2009-02-21T06:11:56Z</time>
            </trkpt>
            <trkpt lon="99.690778" lat="12.889983">
                <ele>85.213989</ele>
                <time>2009-02-21T06:12:08Z</time>
            </trkpt>
            <trkpt lon="99.690519" lat="12.889765">
                <ele>86.175293</ele>
                <time>2009-02-21T06:12:20Z</time>
            </trkpt>
            <trkpt lon="99.690217" lat="12.889722">
                <ele>87.136597</ele>
                <time>2009-02-21T06:12:31Z</time>
            </trkpt>
            <trkpt lon="99.689993" lat="12.889708">
                <ele>88.578735</ele>
                <time>2009-02-21T06:12:38Z</time>
            </trkpt>
            <trkpt lon="99.689868" lat="12.889548">
                <ele>89.539917</ele>
                <time>2009-02-21T06:12:45Z</time>
            </trkpt>
            <trkpt lon="99.689647" lat="12.889277">
                <ele>89.539917</ele>
                <time>2009-02-21T06:12:55Z</time>
            </trkpt>
            <trkpt lon="99.689476" lat="12.889152">
                <ele>89.059326</ele>
                <time>2009-02-21T06:13:00Z</time>
            </trkpt>
            <trkpt lon="99.689249" lat="12.888838">
                <ele>88.098022</ele>
                <time>2009-02-21T06:13:09Z</time>
            </trkpt>
            <trkpt lon="99.688976" lat="12.888584">
                <ele>87.617188</ele>
                <time>2009-02-21T06:13:19Z</time>
            </trkpt>
            <trkpt lon="99.688636" lat="12.888364">
                <ele>87.617188</ele>
                <time>2009-02-21T06:13:32Z</time>
            </trkpt>
            <trkpt lon="99.688528" lat="12.887934">
                <ele>86.656006</ele>
                <time>2009-02-21T06:13:45Z</time>
            </trkpt>
            <trkpt lon="99.688605" lat="12.887610">
                <ele>85.694580</ele>
                <time>2009-02-21T06:13:57Z</time>
            </trkpt>
            <trkpt lon="99.688724" lat="12.887410">
                <ele>85.694580</ele>
                <time>2009-02-21T06:14:05Z</time>
            </trkpt>
            <trkpt lon="99.688457" lat="12.887267">
                <ele>86.175293</ele>
                <time>2009-02-21T06:14:16Z</time>
            </trkpt>
            <trkpt lon="99.688220" lat="12.887234">
                <ele>86.175293</ele>
                <time>2009-02-21T06:14:31Z</time>
            </trkpt>
            <trkpt lon="99.688192" lat="12.887237">
                <ele>87.136597</ele>
                <time>2009-02-21T06:14:55Z</time>
            </trkpt>
            <trkpt lon="99.688198" lat="12.887242">
                <ele>89.059326</ele>
                <time>2009-02-21T06:15:24Z</time>
            </trkpt>
            <trkpt lon="99.688194" lat="12.887240">
                <ele>89.059326</ele>
                <time>2009-02-21T06:17:16Z</time>
            </trkpt>
            <trkpt lon="99.688206" lat="12.887234">
                <ele>89.539917</ele>
                <time>2009-02-21T06:17:34Z</time>
            </trkpt>
            <trkpt lon="99.688264" lat="12.887201">
                <ele>89.059326</ele>
                <time>2009-02-21T06:17:49Z</time>
            </trkpt>
            <trkpt lon="99.688397" lat="12.887162">
                <ele>86.656006</ele>
                <time>2009-02-21T06:18:19Z</time>
            </trkpt>
            <trkpt lon="99.688759" lat="12.887282">
                <ele>87.136597</ele>
                <time>2009-02-21T06:18:34Z</time>
            </trkpt>
            <trkpt lon="99.688831" lat="12.887249">
                <ele>89.059326</ele>
                <time>2009-02-21T06:18:46Z</time>
            </trkpt>
            <trkpt lon="99.688853" lat="12.887129">
                <ele>88.578735</ele>
                <time>2009-02-21T06:19:04Z</time>
            </trkpt>
            <trkpt lon="99.688877" lat="12.887057">
                <ele>89.059326</ele>
                <time>2009-02-21T06:19:20Z</time>
            </trkpt>
            <trkpt lon="99.689013" lat="12.886947">
                <ele>88.098022</ele>
                <time>2009-02-21T06:19:35Z</time>
            </trkpt>
            <trkpt lon="99.689312" lat="12.886753">
                <ele>86.656006</ele>
                <time>2009-02-21T06:19:53Z</time>
            </trkpt>
            <trkpt lon="99.689353" lat="12.886691">
                <ele>85.694580</ele>
                <time>2009-02-21T06:20:02Z</time>
            </trkpt>
            <trkpt lon="99.689387" lat="12.886499">
                <ele>83.291382</ele>
                <time>2009-02-21T06:20:17Z</time>
            </trkpt>
            <trkpt lon="99.689276" lat="12.886251">
                <ele>79.926636</ele>
                <time>2009-02-21T06:20:29Z</time>
            </trkpt>
            <trkpt lon="99.689237" lat="12.886178">
                <ele>78.484741</ele>
                <time>2009-02-21T06:20:44Z</time>
            </trkpt>
            <trkpt lon="99.689233" lat="12.886145">
                <ele>78.484741</ele>
                <time>2009-02-21T06:20:59Z</time>
            </trkpt>
            <trkpt lon="99.689246" lat="12.886128">
                <ele>78.004028</ele>
                <time>2009-02-21T06:21:02Z</time>
            </trkpt>
            <trkpt lon="99.689282" lat="12.886060">
                <ele>77.523438</ele>
                <time>2009-02-21T06:21:08Z</time>
            </trkpt>
            <trkpt lon="99.689306" lat="12.885863">
                <ele>75.600830</ele>
                <time>2009-02-21T06:21:22Z</time>
            </trkpt>
            <trkpt lon="99.689342" lat="12.885745">
                <ele>74.158813</ele>
                <time>2009-02-21T06:21:35Z</time>
            </trkpt>
            <trkpt lon="99.689457" lat="12.885557">
                <ele>71.755493</ele>
                <time>2009-02-21T06:21:49Z</time>
            </trkpt>
            <trkpt lon="99.689561" lat="12.885225">
                <ele>72.236206</ele>
                <time>2009-02-21T06:22:04Z</time>
            </trkpt>
            <trkpt lon="99.689576" lat="12.884977">
                <ele>72.236206</ele>
                <time>2009-02-21T06:22:19Z</time>
            </trkpt>
            <trkpt lon="99.689660" lat="12.884754">
                <ele>71.274902</ele>
                <time>2009-02-21T06:22:27Z</time>
            </trkpt>
            <trkpt lon="99.690082" lat="12.884760">
                <ele>70.313477</ele>
                <time>2009-02-21T06:22:39Z</time>
            </trkpt>
            <trkpt lon="99.690220" lat="12.884786">
                <ele>70.313477</ele>
                <time>2009-02-21T06:22:42Z</time>
            </trkpt>
            <trkpt lon="99.690520" lat="12.884820">
                <ele>69.352295</ele>
                <time>2009-02-21T06:22:49Z</time>
            </trkpt>
            <trkpt lon="99.690708" lat="12.884895">
                <ele>69.352295</ele>
                <time>2009-02-21T06:22:54Z</time>
            </trkpt>
            <trkpt lon="99.690809" lat="12.884794">
                <ele>68.871582</ele>
                <time>2009-02-21T06:23:00Z</time>
            </trkpt>
            <trkpt lon="99.690817" lat="12.884686">
                <ele>68.871582</ele>
                <time>2009-02-21T06:23:03Z</time>
            </trkpt>
            <trkpt lon="99.690880" lat="12.884531">
                <ele>68.871582</ele>
                <time>2009-02-21T06:23:07Z</time>
            </trkpt>
            <trkpt lon="99.690947" lat="12.884421">
                <ele>68.390869</ele>
                <time>2009-02-21T06:23:10Z</time>
            </trkpt>
            <trkpt lon="99.690996" lat="12.884201">
                <ele>67.910278</ele>
                <time>2009-02-21T06:23:15Z</time>
            </trkpt>
            <trkpt lon="99.691064" lat="12.884020">
                <ele>67.429688</ele>
                <time>2009-02-21T06:23:19Z</time>
            </trkpt>
            <trkpt lon="99.691035" lat="12.883391">
                <ele>65.987671</ele>
                <time>2009-02-21T06:23:32Z</time>
            </trkpt>
            <trkpt lon="99.690843" lat="12.882853">
                <ele>64.065063</ele>
                <time>2009-02-21T06:23:45Z</time>
            </trkpt>
            <trkpt lon="99.690827" lat="12.882803">
                <ele>64.065063</ele>
                <time>2009-02-21T06:23:46Z</time>
            </trkpt>
            <trkpt lon="99.690808" lat="12.882604">
                <ele>64.065063</ele>
                <time>2009-02-21T06:23:50Z</time>
            </trkpt>
            <trkpt lon="99.690881" lat="12.882476">
                <ele>64.065063</ele>
                <time>2009-02-21T06:23:53Z</time>
            </trkpt>
            <trkpt lon="99.690935" lat="12.882349">
                <ele>64.065063</ele>
                <time>2009-02-21T06:23:56Z</time>
            </trkpt>
            <trkpt lon="99.690954" lat="12.882168">
                <ele>63.103638</ele>
                <time>2009-02-21T06:24:00Z</time>
            </trkpt>
            <trkpt lon="99.691038" lat="12.881999">
                <ele>62.622925</ele>
                <time>2009-02-21T06:24:04Z</time>
            </trkpt>
            <trkpt lon="99.691123" lat="12.881939">
                <ele>62.622925</ele>
                <time>2009-02-21T06:24:06Z</time>
            </trkpt>
            <trkpt lon="99.691649" lat="12.881296">
                <ele>61.181030</ele>
                <time>2009-02-21T06:24:22Z</time>
            </trkpt>
            <trkpt lon="99.691836" lat="12.880876">
                <ele>59.739136</ele>
                <time>2009-02-21T06:24:33Z</time>
            </trkpt>
            <trkpt lon="99.691726" lat="12.880803">
                <ele>58.777710</ele>
                <time>2009-02-21T06:24:38Z</time>
            </trkpt>
            <trkpt lon="99.691320" lat="12.880894">
                <ele>58.297119</ele>
                <time>2009-02-21T06:24:50Z</time>
            </trkpt>
            <trkpt lon="99.690915" lat="12.880961">
                <ele>58.297119</ele>
                <time>2009-02-21T06:25:04Z</time>
            </trkpt>
            <trkpt lon="99.690881" lat="12.880948">
                <ele>61.661743</ele>
                <time>2009-02-21T06:25:19Z</time>
            </trkpt>
            <trkpt lon="99.690790" lat="12.880949">
                <ele>63.584351</ele>
                <time>2009-02-21T06:25:35Z</time>
            </trkpt>
            <trkpt lon="99.690723" lat="12.880953">
                <ele>63.103638</ele>
                <time>2009-02-21T06:25:51Z</time>
            </trkpt>
            <trkpt lon="99.690697" lat="12.880940">
                <ele>62.622925</ele>
                <time>2009-02-21T06:26:00Z</time>
            </trkpt>
            <trkpt lon="99.690638" lat="12.880925">
                <ele>62.622925</ele>
                <time>2009-02-21T06:26:07Z</time>
            </trkpt>
            <trkpt lon="99.690517" lat="12.880947">
                <ele>63.103638</ele>
                <time>2009-02-21T06:26:13Z</time>
            </trkpt>
            <trkpt lon="99.690444" lat="12.880872">
                <ele>62.622925</ele>
                <time>2009-02-21T06:26:18Z</time>
            </trkpt>
            <trkpt lon="99.690352" lat="12.880747">
                <ele>63.103638</ele>
                <time>2009-02-21T06:26:25Z</time>
            </trkpt>
            <trkpt lon="99.690328" lat="12.880733">
                <ele>62.622925</ele>
                <time>2009-02-21T06:26:38Z</time>
            </trkpt>
            <trkpt lon="99.690282" lat="12.880694">
                <ele>64.545654</ele>
                <time>2009-02-21T06:28:07Z</time>
            </trkpt>
            <trkpt lon="99.690012" lat="12.880461">
                <ele>61.181030</ele>
                <time>2009-02-21T06:28:21Z</time>
            </trkpt>
            <trkpt lon="99.689738" lat="12.880282">
                <ele>59.739136</ele>
                <time>2009-02-21T06:28:35Z</time>
            </trkpt>
            <trkpt lon="99.689466" lat="12.880035">
                <ele>59.258423</ele>
                <time>2009-02-21T06:28:48Z</time>
            </trkpt>
            <trkpt lon="99.689497" lat="12.879853">
                <ele>60.700317</ele>
                <time>2009-02-21T06:28:56Z</time>
            </trkpt>
            <trkpt lon="99.689665" lat="12.879576">
                <ele>60.219727</ele>
                <time>2009-02-21T06:29:08Z</time>
            </trkpt>
            <trkpt lon="99.689859" lat="12.879540">
                <ele>58.777710</ele>
                <time>2009-02-21T06:29:17Z</time>
            </trkpt>
            <trkpt lon="99.689844" lat="12.879518">
                <ele>60.700317</ele>
                <time>2009-02-21T06:29:27Z</time>
            </trkpt>
            <trkpt lon="99.689655" lat="12.879580">
                <ele>61.661743</ele>
                <time>2009-02-21T06:29:41Z</time>
            </trkpt>
            <trkpt lon="99.689475" lat="12.879514">
                <ele>60.700317</ele>
                <time>2009-02-21T06:29:51Z</time>
            </trkpt>
            <trkpt lon="99.689369" lat="12.879493">
                <ele>62.622925</ele>
                <time>2009-02-21T06:30:05Z</time>
            </trkpt>
            <trkpt lon="99.689351" lat="12.879485">
                <ele>62.622925</ele>
                <time>2009-02-21T06:30:07Z</time>
            </trkpt>
            <trkpt lon="99.689322" lat="12.879472">
                <ele>62.622925</ele>
                <time>2009-02-21T06:30:21Z</time>
            </trkpt>
            <trkpt lon="99.689298" lat="12.879460">
                <ele>63.103638</ele>
                <time>2009-02-21T06:30:35Z</time>
            </trkpt>
            <trkpt lon="99.689292" lat="12.879456">
                <ele>63.103638</ele>
                <time>2009-02-21T06:31:00Z</time>
            </trkpt>
            <trkpt lon="99.689378" lat="12.879495">
                <ele>62.142334</ele>
                <time>2009-02-21T06:31:12Z</time>
            </trkpt>
            <trkpt lon="99.689572" lat="12.879536">
                <ele>60.700317</ele>
                <time>2009-02-21T06:31:23Z</time>
            </trkpt>
            <trkpt lon="99.689624" lat="12.879552">
                <ele>60.700317</ele>
                <time>2009-02-21T06:31:25Z</time>
            </trkpt>
            <trkpt lon="99.689665" lat="12.879591">
                <ele>60.219727</ele>
                <time>2009-02-21T06:31:41Z</time>
            </trkpt>
            <trkpt lon="99.689675" lat="12.879586">
                <ele>60.219727</ele>
                <time>2009-02-21T06:31:44Z</time>
            </trkpt>
            <trkpt lon="99.689808" lat="12.879521">
                <ele>59.739136</ele>
                <time>2009-02-21T06:31:51Z</time>
            </trkpt>
            <trkpt lon="99.690099" lat="12.879283">
                <ele>59.258423</ele>
                <time>2009-02-21T06:32:03Z</time>
            </trkpt>
            <trkpt lon="99.690218" lat="12.878868">
                <ele>59.739136</ele>
                <time>2009-02-21T06:32:17Z</time>
            </trkpt>
            <trkpt lon="99.690316" lat="12.878402">
                <ele>60.219727</ele>
                <time>2009-02-21T06:32:33Z</time>
            </trkpt>
            <trkpt lon="99.690436" lat="12.877965">
                <ele>61.661743</ele>
                <time>2009-02-21T06:32:51Z</time>
            </trkpt>
            <trkpt lon="99.690508" lat="12.877703">
                <ele>63.103638</ele>
                <time>2009-02-21T06:33:04Z</time>
            </trkpt>
            <trkpt lon="99.690600" lat="12.877432">
                <ele>65.026367</ele>
                <time>2009-02-21T06:33:19Z</time>
            </trkpt>
            <trkpt lon="99.690769" lat="12.877439">
                <ele>64.065063</ele>
                <time>2009-02-21T06:33:26Z</time>
            </trkpt>
            <trkpt lon="99.691159" lat="12.877488">
                <ele>62.142334</ele>
                <time>2009-02-21T06:33:40Z</time>
            </trkpt>
            <trkpt lon="99.691228" lat="12.877499">
                <ele>61.181030</ele>
                <time>2009-02-21T06:33:55Z</time>
            </trkpt>
            <trkpt lon="99.691453" lat="12.877538">
                <ele>58.777710</ele>
                <time>2009-02-21T06:34:06Z</time>
            </trkpt>
            <trkpt lon="99.691982" lat="12.877629">
                <ele>54.932373</ele>
                <time>2009-02-21T06:34:22Z</time>
            </trkpt>
            <trkpt lon="99.692296" lat="12.877523">
                <ele>53.971191</ele>
                <time>2009-02-21T06:34:33Z</time>
            </trkpt>
            <trkpt lon="99.692373" lat="12.877270">
                <ele>53.971191</ele>
                <time>2009-02-21T06:34:46Z</time>
            </trkpt>
            <trkpt lon="99.692427" lat="12.877114">
                <ele>54.932373</ele>
                <time>2009-02-21T06:34:59Z</time>
            </trkpt>
            <trkpt lon="99.692647" lat="12.876824">
                <ele>54.451782</ele>
                <time>2009-02-21T06:35:11Z</time>
            </trkpt>
            <trkpt lon="99.692958" lat="12.876702">
                <ele>51.567871</ele>
                <time>2009-02-21T06:35:19Z</time>
            </trkpt>
            <trkpt lon="99.693140" lat="12.876486">
                <ele>51.567871</ele>
                <time>2009-02-21T06:35:26Z</time>
            </trkpt>
            <trkpt lon="99.693262" lat="12.876268">
                <ele>51.567871</ele>
                <time>2009-02-21T06:35:34Z</time>
            </trkpt>
            <trkpt lon="99.693382" lat="12.876283">
                <ele>50.606567</ele>
                <time>2009-02-21T06:35:37Z</time>
            </trkpt>
            <trkpt lon="99.693603" lat="12.876198">
                <ele>50.125977</ele>
                <time>2009-02-21T06:35:43Z</time>
            </trkpt>
            <trkpt lon="99.694075" lat="12.875783">
                <ele>49.645264</ele>
                <time>2009-02-21T06:35:57Z</time>
            </trkpt>
            <trkpt lon="99.694208" lat="12.875558">
                <ele>49.645264</ele>
                <time>2009-02-21T06:36:04Z</time>
            </trkpt>
            <trkpt lon="99.694201" lat="12.874941">
                <ele>48.203369</ele>
                <time>2009-02-21T06:36:17Z</time>
            </trkpt>
            <trkpt lon="99.694224" lat="12.874323">
                <ele>49.164551</ele>
                <time>2009-02-21T06:36:34Z</time>
            </trkpt>
            <trkpt lon="99.694234" lat="12.873877">
                <ele>50.606567</ele>
                <time>2009-02-21T06:36:49Z</time>
            </trkpt>
            <trkpt lon="99.694195" lat="12.873580">
                <ele>53.009766</ele>
                <time>2009-02-21T06:37:02Z</time>
            </trkpt>
            <trkpt lon="99.693845" lat="12.873563">
                <ele>53.971191</ele>
                <time>2009-02-21T06:37:16Z</time>
            </trkpt>
            <trkpt lon="99.693451" lat="12.873569">
                <ele>55.893799</ele>
                <time>2009-02-21T06:37:30Z</time>
            </trkpt>
            <trkpt lon="99.693390" lat="12.873418">
                <ele>57.335815</ele>
                <time>2009-02-21T06:37:39Z</time>
            </trkpt>
            <trkpt lon="99.693470" lat="12.873007">
                <ele>57.335815</ele>
                <time>2009-02-21T06:37:56Z</time>
            </trkpt>
            <trkpt lon="99.693506" lat="12.872640">
                <ele>55.413086</ele>
                <time>2009-02-21T06:38:06Z</time>
            </trkpt>
            <trkpt lon="99.693689" lat="12.871802">
                <ele>53.971191</ele>
                <time>2009-02-21T06:38:24Z</time>
            </trkpt>
            <trkpt lon="99.693820" lat="12.871205">
                <ele>54.451782</ele>
                <time>2009-02-21T06:38:40Z</time>
            </trkpt>
            <trkpt lon="99.693997" lat="12.870570">
                <ele>55.893799</ele>
                <time>2009-02-21T06:39:00Z</time>
            </trkpt>
            <trkpt lon="99.694313" lat="12.869913">
                <ele>55.893799</ele>
                <time>2009-02-21T06:39:18Z</time>
            </trkpt>
            <trkpt lon="99.694347" lat="12.869841">
                <ele>55.893799</ele>
                <time>2009-02-21T06:39:20Z</time>
            </trkpt>
            <trkpt lon="99.694501" lat="12.869245">
                <ele>56.374512</ele>
                <time>2009-02-21T06:39:37Z</time>
            </trkpt>
            <trkpt lon="99.694580" lat="12.868683">
                <ele>56.855103</ele>
                <time>2009-02-21T06:39:53Z</time>
            </trkpt>
            <trkpt lon="99.694650" lat="12.868524">
                <ele>56.855103</ele>
                <time>2009-02-21T06:39:57Z</time>
            </trkpt>
            <trkpt lon="99.694720" lat="12.868160">
                <ele>57.816528</ele>
                <time>2009-02-21T06:40:09Z</time>
            </trkpt>
            <trkpt lon="99.694460" lat="12.867762">
                <ele>60.700317</ele>
                <time>2009-02-21T06:40:28Z</time>
            </trkpt>
            <trkpt lon="99.694194" lat="12.867359">
                <ele>62.142334</ele>
                <time>2009-02-21T06:40:46Z</time>
            </trkpt>
            <trkpt lon="99.693882" lat="12.866908">
                <ele>61.181030</ele>
                <time>2009-02-21T06:41:02Z</time>
            </trkpt>
            <trkpt lon="99.693767" lat="12.866808">
                <ele>60.219727</ele>
                <time>2009-02-21T06:41:05Z</time>
            </trkpt>
            <trkpt lon="99.693360" lat="12.866675">
                <ele>55.893799</ele>
                <time>2009-02-21T06:41:11Z</time>
            </trkpt>
            <trkpt lon="99.693174" lat="12.866655">
                <ele>53.971191</ele>
                <time>2009-02-21T06:41:13Z</time>
            </trkpt>
            <trkpt lon="99.692582" lat="12.866237">
                <ele>48.203369</ele>
                <time>2009-02-21T06:41:20Z</time>
            </trkpt>
            <trkpt lon="99.691900" lat="12.865272">
                <ele>47.241821</ele>
                <time>2009-02-21T06:41:33Z</time>
            </trkpt>
            <trkpt lon="99.691478" lat="12.864710">
                <ele>49.645264</ele>
                <time>2009-02-21T06:41:45Z</time>
            </trkpt>
            <trkpt lon="99.691355" lat="12.864619">
                <ele>50.125977</ele>
                <time>2009-02-21T06:41:49Z</time>
            </trkpt>
            <trkpt lon="99.690595" lat="12.864361">
                <ele>51.567871</ele>
                <time>2009-02-21T06:42:10Z</time>
            </trkpt>
            <trkpt lon="99.690102" lat="12.864199">
                <ele>52.529175</ele>
                <time>2009-02-21T06:42:23Z</time>
            </trkpt>
            <trkpt lon="99.689502" lat="12.863877">
                <ele>51.087158</ele>
                <time>2009-02-21T06:42:41Z</time>
            </trkpt>
            <trkpt lon="99.689056" lat="12.863660">
                <ele>50.606567</ele>
                <time>2009-02-21T06:42:57Z</time>
            </trkpt>
            <trkpt lon="99.688445" lat="12.863324">
                <ele>50.606567</ele>
                <time>2009-02-21T06:43:17Z</time>
            </trkpt>
            <trkpt lon="99.688256" lat="12.863149">
                <ele>50.125977</ele>
                <time>2009-02-21T06:43:27Z</time>
            </trkpt>
            <trkpt lon="99.688349" lat="12.863045">
                <ele>50.125977</ele>
                <time>2009-02-21T06:43:36Z</time>
            </trkpt>
            <trkpt lon="99.688356" lat="12.863041">
                <ele>52.048584</ele>
                <time>2009-02-21T06:43:56Z</time>
            </trkpt>
            <trkpt lon="99.688352" lat="12.863058">
                <ele>53.009766</ele>
                <time>2009-02-21T06:44:29Z</time>
            </trkpt>
            <trkpt lon="99.688273" lat="12.863218">
                <ele>52.048584</ele>
                <time>2009-02-21T06:44:41Z</time>
            </trkpt>
            <trkpt lon="99.688294" lat="12.863240">
                <ele>52.048584</ele>
                <time>2009-02-21T06:44:42Z</time>
            </trkpt>
            <trkpt lon="99.688832" lat="12.863601">
                <ele>51.087158</ele>
                <time>2009-02-21T06:45:00Z</time>
            </trkpt>
            <trkpt lon="99.689596" lat="12.863958">
                <ele>51.567871</ele>
                <time>2009-02-21T06:45:22Z</time>
            </trkpt>
            <trkpt lon="99.690159" lat="12.864215">
                <ele>52.048584</ele>
                <time>2009-02-21T06:45:41Z</time>
            </trkpt>
            <trkpt lon="99.690882" lat="12.864457">
                <ele>51.087158</ele>
                <time>2009-02-21T06:46:00Z</time>
            </trkpt>
            <trkpt lon="99.691475" lat="12.864618">
                <ele>49.645264</ele>
                <time>2009-02-21T06:46:17Z</time>
            </trkpt>
            <trkpt lon="99.691817" lat="12.864638">
                <ele>49.164551</ele>
                <time>2009-02-21T06:46:25Z</time>
            </trkpt>
            <trkpt lon="99.692027" lat="12.864562">
                <ele>48.683960</ele>
                <time>2009-02-21T06:46:30Z</time>
            </trkpt>
            <trkpt lon="99.692752" lat="12.864110">
                <ele>50.125977</ele>
                <time>2009-02-21T06:46:50Z</time>
            </trkpt>
            <trkpt lon="99.693568" lat="12.863540">
                <ele>49.164551</ele>
                <time>2009-02-21T06:47:09Z</time>
            </trkpt>
            <trkpt lon="99.694512" lat="12.862977">
                <ele>48.683960</ele>
                <time>2009-02-21T06:47:29Z</time>
            </trkpt>
            <trkpt lon="99.694861" lat="12.862820">
                <ele>49.645264</ele>
                <time>2009-02-21T06:47:39Z</time>
            </trkpt>
            <trkpt lon="99.695393" lat="12.862478">
                <ele>47.722534</ele>
                <time>2009-02-21T06:47:51Z</time>
            </trkpt>
            <trkpt lon="99.695671" lat="12.862253">
                <ele>49.164551</ele>
                <time>2009-02-21T06:48:01Z</time>
            </trkpt>
            <trkpt lon="99.695728" lat="12.862232">
                <ele>49.645264</ele>
                <time>2009-02-21T06:48:04Z</time>
            </trkpt>
            <trkpt lon="99.695900" lat="12.862429">
                <ele>47.241821</ele>
                <time>2009-02-21T06:48:14Z</time>
            </trkpt>
            <trkpt lon="99.696011" lat="12.862571">
                <ele>45.799927</ele>
                <time>2009-02-21T06:48:29Z</time>
            </trkpt>
            <trkpt lon="99.696123" lat="12.862671">
                <ele>45.319214</ele>
                <time>2009-02-21T06:48:40Z</time>
            </trkpt>
            <trkpt lon="99.696451" lat="12.862915">
                <ele>45.319214</ele>
                <time>2009-02-21T06:48:50Z</time>
            </trkpt>
            <trkpt lon="99.696713" lat="12.863094">
                <ele>44.838623</ele>
                <time>2009-02-21T06:49:02Z</time>
            </trkpt>
            <trkpt lon="99.696897" lat="12.863138">
                <ele>41.954712</ele>
                <time>2009-02-21T06:49:35Z</time>
            </trkpt>
            <trkpt lon="99.697062" lat="12.863182">
                <ele>39.551269</ele>
                <time>2009-02-21T06:49:41Z</time>
            </trkpt>
            <trkpt lon="99.697132" lat="12.863250">
                <ele>39.070679</ele>
                <time>2009-02-21T06:49:46Z</time>
            </trkpt>
            <trkpt lon="99.697146" lat="12.863285">
                <ele>41.954712</ele>
                <time>2009-02-21T06:50:01Z</time>
            </trkpt>
            <trkpt lon="99.697109" lat="12.863374">
                <ele>44.838623</ele>
                <time>2009-02-21T06:50:18Z</time>
            </trkpt>
            <trkpt lon="99.697072" lat="12.863466">
                <ele>47.241821</ele>
                <time>2009-02-21T06:50:31Z</time>
            </trkpt>
            <trkpt lon="99.697022" lat="12.863647">
                <ele>48.203369</ele>
                <time>2009-02-21T06:50:49Z</time>
            </trkpt>
            <trkpt lon="99.696991" lat="12.863751">
                <ele>48.683960</ele>
                <time>2009-02-21T06:51:05Z</time>
            </trkpt>
            <trkpt lon="99.696974" lat="12.863862">
                <ele>49.164551</ele>
                <time>2009-02-21T06:51:19Z</time>
            </trkpt>
            <trkpt lon="99.696984" lat="12.864159">
                <ele>49.164551</ele>
                <time>2009-02-21T06:51:31Z</time>
            </trkpt>
            <trkpt lon="99.696853" lat="12.864455">
                <ele>49.645264</ele>
                <time>2009-02-21T06:51:42Z</time>
            </trkpt>
            <trkpt lon="99.696626" lat="12.864788">
                <ele>51.567871</ele>
                <time>2009-02-21T06:51:58Z</time>
            </trkpt>
            <trkpt lon="99.696412" lat="12.865180">
                <ele>52.048584</ele>
                <time>2009-02-21T06:52:15Z</time>
            </trkpt>
            <trkpt lon="99.696375" lat="12.865298">
                <ele>51.087158</ele>
                <time>2009-02-21T06:52:20Z</time>
            </trkpt>
            <trkpt lon="99.696434" lat="12.865354">
                <ele>50.125977</ele>
                <time>2009-02-21T06:52:25Z</time>
            </trkpt>
            <trkpt lon="99.696720" lat="12.865410">
                <ele>46.280640</ele>
                <time>2009-02-21T06:52:40Z</time>
            </trkpt>
            <trkpt lon="99.697039" lat="12.865421">
                <ele>43.396606</ele>
                <time>2009-02-21T06:52:50Z</time>
            </trkpt>
            <trkpt lon="99.697100" lat="12.865474">
                <ele>42.916016</ele>
                <time>2009-02-21T06:52:57Z</time>
            </trkpt>
            <trkpt lon="99.697160" lat="12.865467">
                <ele>42.916016</ele>
                <time>2009-02-21T06:53:01Z</time>
            </trkpt>
            <trkpt lon="99.697352" lat="12.865446">
                <ele>44.358032</ele>
                <time>2009-02-21T06:53:15Z</time>
            </trkpt>
            <trkpt lon="99.697446" lat="12.865435">
                <ele>45.319214</ele>
                <time>2009-02-21T06:53:28Z</time>
            </trkpt>
            <trkpt lon="99.697607" lat="12.865388">
                <ele>46.761231</ele>
                <time>2009-02-21T06:53:39Z</time>
            </trkpt>
            <trkpt lon="99.698031" lat="12.865427">
                <ele>47.241821</ele>
                <time>2009-02-21T06:53:56Z</time>
            </trkpt>
            <trkpt lon="99.698579" lat="12.865505">
                <ele>47.241821</ele>
                <time>2009-02-21T06:54:11Z</time>
            </trkpt>
            <trkpt lon="99.698707" lat="12.865514">
                <ele>47.241821</ele>
                <time>2009-02-21T06:54:14Z</time>
            </trkpt>
            <trkpt lon="99.699494" lat="12.865574">
                <ele>47.722534</ele>
                <time>2009-02-21T06:54:33Z</time>
            </trkpt>
            <trkpt lon="99.700272" lat="12.865659">
                <ele>47.241821</ele>
                <time>2009-02-21T06:54:51Z</time>
            </trkpt>
            <trkpt lon="99.701352" lat="12.865766">
                <ele>48.203369</ele>
                <time>2009-02-21T06:55:15Z</time>
            </trkpt>
            <trkpt lon="99.701618" lat="12.865803">
                <ele>48.203369</ele>
                <time>2009-02-21T06:55:21Z</time>
            </trkpt>
            <trkpt lon="99.701752" lat="12.865805">
                <ele>47.722534</ele>
                <time>2009-02-21T06:55:24Z</time>
            </trkpt>
            <trkpt lon="99.701974" lat="12.865844">
                <ele>48.203369</ele>
                <time>2009-02-21T06:55:30Z</time>
            </trkpt>
            <trkpt lon="99.702151" lat="12.865947">
                <ele>47.241821</ele>
                <time>2009-02-21T06:55:35Z</time>
            </trkpt>
            <trkpt lon="99.702497" lat="12.866063">
                <ele>47.241821</ele>
                <time>2009-02-21T06:55:48Z</time>
            </trkpt>
            <trkpt lon="99.703047" lat="12.866337">
                <ele>46.761231</ele>
                <time>2009-02-21T06:56:07Z</time>
            </trkpt>
            <trkpt lon="99.703569" lat="12.866676">
                <ele>46.761231</ele>
                <time>2009-02-21T06:56:24Z</time>
            </trkpt>
            <trkpt lon="99.703990" lat="12.867058">
                <ele>46.280640</ele>
                <time>2009-02-21T06:56:38Z</time>
            </trkpt>
            <trkpt lon="99.704537" lat="12.867726">
                <ele>44.838623</ele>
                <time>2009-02-21T06:56:56Z</time>
            </trkpt>
            <trkpt lon="99.705026" lat="12.868628">
                <ele>44.358032</ele>
                <time>2009-02-21T06:57:18Z</time>
            </trkpt>
            <trkpt lon="99.705306" lat="12.869262">
                <ele>44.838623</ele>
                <time>2009-02-21T06:57:37Z</time>
            </trkpt>
            <trkpt lon="99.705570" lat="12.869723">
                <ele>46.280640</ele>
                <time>2009-02-21T06:57:57Z</time>
            </trkpt>
            <trkpt lon="99.705580" lat="12.869739">
                <ele>45.799927</ele>
                <time>2009-02-21T06:58:14Z</time>
            </trkpt>
            <trkpt lon="99.705585" lat="12.869758">
                <ele>49.164551</ele>
                <time>2009-02-21T06:59:25Z</time>
            </trkpt>
            <trkpt lon="99.705613" lat="12.869806">
                <ele>48.683960</ele>
                <time>2009-02-21T06:59:53Z</time>
            </trkpt>
            <trkpt lon="99.705656" lat="12.869865">
                <ele>48.683960</ele>
                <time>2009-02-21T07:00:09Z</time>
            </trkpt>
            <trkpt lon="99.705634" lat="12.869869">
                <ele>49.645264</ele>
                <time>2009-02-21T07:11:55Z</time>
            </trkpt>
            <trkpt lon="99.705595" lat="12.869861">
                <ele>50.125977</ele>
                <time>2009-02-21T07:11:59Z</time>
            </trkpt>
            <trkpt lon="99.705435" lat="12.869591">
                <ele>48.203369</ele>
                <time>2009-02-21T07:12:11Z</time>
            </trkpt>
            <trkpt lon="99.705078" lat="12.868744">
                <ele>45.319214</ele>
                <time>2009-02-21T07:12:31Z</time>
            </trkpt>
            <trkpt lon="99.704527" lat="12.867703">
                <ele>44.838623</ele>
                <time>2009-02-21T07:12:54Z</time>
            </trkpt>
            <trkpt lon="99.704040" lat="12.867084">
                <ele>47.722534</ele>
                <time>2009-02-21T07:13:12Z</time>
            </trkpt>
            <trkpt lon="99.703582" lat="12.866654">
                <ele>48.683960</ele>
                <time>2009-02-21T07:13:27Z</time>
            </trkpt>
            <trkpt lon="99.703502" lat="12.866609">
                <ele>48.683960</ele>
                <time>2009-02-21T07:13:29Z</time>
            </trkpt>
            <trkpt lon="99.703502" lat="12.866609">
                <ele>48.683960</ele>
                <time>2009-02-21T07:13:29Z</time>
            </trkpt>
            <trkpt lon="99.702867" lat="12.866269">
                <ele>47.241821</ele>
                <time>2009-02-21T07:13:45Z</time>
            </trkpt>
            <trkpt lon="99.702384" lat="12.866023">
                <ele>46.280640</ele>
                <time>2009-02-21T07:13:59Z</time>
            </trkpt>
            <trkpt lon="99.702260" lat="12.865973">
                <ele>47.241821</ele>
                <time>2009-02-21T07:14:10Z</time>
            </trkpt>
            <trkpt lon="99.701978" lat="12.865860">
                <ele>47.722534</ele>
                <time>2009-02-21T07:14:22Z</time>
            </trkpt>
            <trkpt lon="99.701431" lat="12.865943">
                <ele>48.683960</ele>
                <time>2009-02-21T07:14:38Z</time>
            </trkpt>
            <trkpt lon="99.700796" lat="12.866102">
                <ele>48.683960</ele>
                <time>2009-02-21T07:14:57Z</time>
            </trkpt>
            <trkpt lon="99.700132" lat="12.866267">
                <ele>47.722534</ele>
                <time>2009-02-21T07:15:14Z</time>
            </trkpt>
            <trkpt lon="99.699849" lat="12.866339">
                <ele>47.722534</ele>
                <time>2009-02-21T07:15:20Z</time>
            </trkpt>
            <trkpt lon="99.699696" lat="12.866492">
                <ele>47.241821</ele>
                <time>2009-02-21T07:15:25Z</time>
            </trkpt>
            <trkpt lon="99.699376" lat="12.866879">
                <ele>47.722534</ele>
                <time>2009-02-21T07:15:40Z</time>
            </trkpt>
            <trkpt lon="99.699161" lat="12.867268">
                <ele>50.125977</ele>
                <time>2009-02-21T07:15:57Z</time>
            </trkpt>
            <trkpt lon="99.698850" lat="12.867774">
                <ele>49.164551</ele>
                <time>2009-02-21T07:16:14Z</time>
            </trkpt>
            <trkpt lon="99.698608" lat="12.868201">
                <ele>51.087158</ele>
                <time>2009-02-21T07:16:29Z</time>
            </trkpt>
            <trkpt lon="99.698455" lat="12.868445">
                <ele>49.645264</ele>
                <time>2009-02-21T07:16:35Z</time>
            </trkpt>
            <trkpt lon="99.698324" lat="12.868568">
                <ele>49.164551</ele>
                <time>2009-02-21T07:16:39Z</time>
            </trkpt>
            <trkpt lon="99.697969" lat="12.868877">
                <ele>48.203369</ele>
                <time>2009-02-21T07:16:49Z</time>
            </trkpt>
            <trkpt lon="99.697834" lat="12.869084">
                <ele>46.761231</ele>
                <time>2009-02-21T07:16:54Z</time>
            </trkpt>
            <trkpt lon="99.697756" lat="12.869322">
                <ele>45.799927</ele>
                <time>2009-02-21T07:16:59Z</time>
            </trkpt>
            <trkpt lon="99.697703" lat="12.869671">
                <ele>44.838623</ele>
                <time>2009-02-21T07:17:06Z</time>
            </trkpt>
            <trkpt lon="99.697731" lat="12.869876">
                <ele>44.358032</ele>
                <time>2009-02-21T07:17:10Z</time>
            </trkpt>
            <trkpt lon="99.697766" lat="12.869970">
                <ele>44.358032</ele>
                <time>2009-02-21T07:17:12Z</time>
            </trkpt>
            <trkpt lon="99.697796" lat="12.870117">
                <ele>44.358032</ele>
                <time>2009-02-21T07:17:15Z</time>
            </trkpt>
            <trkpt lon="99.697841" lat="12.870262">
                <ele>44.358032</ele>
                <time>2009-02-21T07:17:18Z</time>
            </trkpt>
            <trkpt lon="99.697850" lat="12.870362">
                <ele>44.358032</ele>
                <time>2009-02-21T07:17:20Z</time>
            </trkpt>
            <trkpt lon="99.697937" lat="12.871054">
                <ele>46.280640</ele>
                <time>2009-02-21T07:17:38Z</time>
            </trkpt>
            <trkpt lon="99.697958" lat="12.871463">
                <ele>46.280640</ele>
                <time>2009-02-21T07:17:51Z</time>
            </trkpt>
            <trkpt lon="99.698121" lat="12.871549">
                <ele>48.683960</ele>
                <time>2009-02-21T07:18:02Z</time>
            </trkpt>
            <trkpt lon="99.698422" lat="12.871641">
                <ele>51.087158</ele>
                <time>2009-02-21T07:18:21Z</time>
            </trkpt>
            <trkpt lon="99.698647" lat="12.871730">
                <ele>54.451782</ele>
                <time>2009-02-21T07:18:39Z</time>
            </trkpt>
            <trkpt lon="99.698818" lat="12.871778">
                <ele>55.413086</ele>
                <time>2009-02-21T07:18:55Z</time>
            </trkpt>
            <trkpt lon="99.699175" lat="12.871902">
                <ele>55.893799</ele>
                <time>2009-02-21T07:19:08Z</time>
            </trkpt>
            <trkpt lon="99.699512" lat="12.872051">
                <ele>57.335815</ele>
                <time>2009-02-21T07:19:26Z</time>
            </trkpt>
            <trkpt lon="99.699799" lat="12.872179">
                <ele>59.258423</ele>
                <time>2009-02-21T07:19:44Z</time>
            </trkpt>
            <trkpt lon="99.700171" lat="12.872319">
                <ele>61.181030</ele>
                <time>2009-02-21T07:20:03Z</time>
            </trkpt>
            <trkpt lon="99.700351" lat="12.872402">
                <ele>61.661743</ele>
                <time>2009-02-21T07:20:12Z</time>
            </trkpt>
            <trkpt lon="99.700327" lat="12.872496">
                <ele>61.181030</ele>
                <time>2009-02-21T07:20:17Z</time>
            </trkpt>
            <trkpt lon="99.700091" lat="12.872783">
                <ele>58.777710</ele>
                <time>2009-02-21T07:20:31Z</time>
            </trkpt>
            <trkpt lon="99.699782" lat="12.873154">
                <ele>55.413086</ele>
                <time>2009-02-21T07:20:46Z</time>
            </trkpt>
            <trkpt lon="99.699613" lat="12.873030">
                <ele>54.932373</ele>
                <time>2009-02-21T07:20:56Z</time>
            </trkpt>
            <trkpt lon="99.699351" lat="12.872779">
                <ele>53.490479</ele>
                <time>2009-02-21T07:21:06Z</time>
            </trkpt>
            <trkpt lon="99.699215" lat="12.873007">
                <ele>52.529175</ele>
                <time>2009-02-21T07:21:15Z</time>
            </trkpt>
            <trkpt lon="99.698947" lat="12.873567">
                <ele>50.125977</ele>
                <time>2009-02-21T07:21:32Z</time>
            </trkpt>
            <trkpt lon="99.698741" lat="12.873969">
                <ele>48.203369</ele>
                <time>2009-02-21T07:21:45Z</time>
            </trkpt>
            <trkpt lon="99.698649" lat="12.874060">
                <ele>48.203369</ele>
                <time>2009-02-21T07:21:56Z</time>
            </trkpt>
            <trkpt lon="99.698618" lat="12.874038">
                <ele>49.164551</ele>
                <time>2009-02-21T07:22:04Z</time>
            </trkpt>
            <trkpt lon="99.698447" lat="12.873969">
                <ele>48.203369</ele>
                <time>2009-02-21T07:22:17Z</time>
            </trkpt>
            <trkpt lon="99.698412" lat="12.873960">
                <ele>47.241821</ele>
                <time>2009-02-21T07:22:23Z</time>
            </trkpt>
            <trkpt lon="99.698269" lat="12.873958">
                <ele>47.722534</ele>
                <time>2009-02-21T07:22:31Z</time>
            </trkpt>
            <trkpt lon="99.697886" lat="12.873871">
                <ele>47.722534</ele>
                <time>2009-02-21T07:22:45Z</time>
            </trkpt>
            <trkpt lon="99.697531" lat="12.873582">
                <ele>47.241821</ele>
                <time>2009-02-21T07:22:58Z</time>
            </trkpt>
            <trkpt lon="99.697486" lat="12.873506">
                <ele>46.761231</ele>
                <time>2009-02-21T07:23:01Z</time>
            </trkpt>
            <trkpt lon="99.697404" lat="12.873518">
                <ele>46.761231</ele>
                <time>2009-02-21T07:23:05Z</time>
            </trkpt>
            <trkpt lon="99.697148" lat="12.873828">
                <ele>46.280640</ele>
                <time>2009-02-21T07:23:20Z</time>
            </trkpt>
            <trkpt lon="99.696778" lat="12.874412">
                <ele>47.241821</ele>
                <time>2009-02-21T07:23:38Z</time>
            </trkpt>
            <trkpt lon="99.696662" lat="12.874573">
                <ele>47.722534</ele>
                <time>2009-02-21T07:23:44Z</time>
            </trkpt>
            <trkpt lon="99.696623" lat="12.874517">
                <ele>47.241821</ele>
                <time>2009-02-21T07:23:49Z</time>
            </trkpt>
            <trkpt lon="99.696583" lat="12.874195">
                <ele>46.761231</ele>
                <time>2009-02-21T07:24:02Z</time>
            </trkpt>
            <trkpt lon="99.696547" lat="12.874095">
                <ele>46.280640</ele>
                <time>2009-02-21T07:24:11Z</time>
            </trkpt>
            <trkpt lon="99.696539" lat="12.874081">
                <ele>47.241821</ele>
                <time>2009-02-21T07:24:32Z</time>
            </trkpt>
            <trkpt lon="99.696557" lat="12.873920">
                <ele>46.761231</ele>
                <time>2009-02-21T07:24:43Z</time>
            </trkpt>
            <trkpt lon="99.696551" lat="12.873925">
                <ele>48.203369</ele>
                <time>2009-02-21T07:25:07Z</time>
            </trkpt>
            <trkpt lon="99.696546" lat="12.873933">
                <ele>48.203369</ele>
                <time>2009-02-21T07:25:11Z</time>
            </trkpt>
            <trkpt lon="99.696571" lat="12.874191">
                <ele>48.683960</ele>
                <time>2009-02-21T07:25:26Z</time>
            </trkpt>
            <trkpt lon="99.696628" lat="12.874487">
                <ele>49.164551</ele>
                <time>2009-02-21T07:25:38Z</time>
            </trkpt>
            <trkpt lon="99.696679" lat="12.874545">
                <ele>49.164551</ele>
                <time>2009-02-21T07:25:42Z</time>
            </trkpt>
            <trkpt lon="99.696666" lat="12.874581">
                <ele>48.683960</ele>
                <time>2009-02-21T07:25:52Z</time>
            </trkpt>
            <trkpt lon="99.696648" lat="12.874598">
                <ele>48.683960</ele>
                <time>2009-02-21T07:26:04Z</time>
            </trkpt>
            <trkpt lon="99.696543" lat="12.874748">
                <ele>49.164551</ele>
                <time>2009-02-21T07:26:18Z</time>
            </trkpt>
            <trkpt lon="99.696215" lat="12.875169">
                <ele>48.683960</ele>
                <time>2009-02-21T07:26:35Z</time>
            </trkpt>
            <trkpt lon="99.696003" lat="12.875686">
                <ele>47.722534</ele>
                <time>2009-02-21T07:26:51Z</time>
            </trkpt>
            <trkpt lon="99.696427" lat="12.876170">
                <ele>47.241821</ele>
                <time>2009-02-21T07:27:08Z</time>
            </trkpt>
            <trkpt lon="99.696613" lat="12.876395">
                <ele>47.722534</ele>
                <time>2009-02-21T07:27:17Z</time>
            </trkpt>
            <trkpt lon="99.696452" lat="12.876597">
                <ele>48.683960</ele>
                <time>2009-02-21T07:27:25Z</time>
            </trkpt>
            <trkpt lon="99.695673" lat="12.876971">
                <ele>47.722534</ele>
                <time>2009-02-21T07:27:46Z</time>
            </trkpt>
            <trkpt lon="99.695086" lat="12.877262">
                <ele>48.683960</ele>
                <time>2009-02-21T07:28:02Z</time>
            </trkpt>
            <trkpt lon="99.694052" lat="12.877840">
                <ele>48.683960</ele>
                <time>2009-02-21T07:28:40Z</time>
            </trkpt>
            <trkpt lon="99.694027" lat="12.877852">
                <ele>48.683960</ele>
                <time>2009-02-21T07:28:41Z</time>
            </trkpt>
            <trkpt lon="99.694008" lat="12.878016">
                <ele>48.683960</ele>
                <time>2009-02-21T07:28:47Z</time>
            </trkpt>
            <trkpt lon="99.693982" lat="12.878242">
                <ele>49.164551</ele>
                <time>2009-02-21T07:28:54Z</time>
            </trkpt>
            <trkpt lon="99.693706" lat="12.878532">
                <ele>51.087158</ele>
                <time>2009-02-21T07:29:08Z</time>
            </trkpt>
            <trkpt lon="99.693991" lat="12.878859">
                <ele>51.087158</ele>
                <time>2009-02-21T07:29:21Z</time>
            </trkpt>
            <trkpt lon="99.694454" lat="12.879350">
                <ele>49.645264</ele>
                <time>2009-02-21T07:29:38Z</time>
            </trkpt>
            <trkpt lon="99.694611" lat="12.879539">
                <ele>48.683960</ele>
                <time>2009-02-21T07:29:43Z</time>
            </trkpt>
            <trkpt lon="99.694723" lat="12.879573">
                <ele>49.645264</ele>
                <time>2009-02-21T07:29:49Z</time>
            </trkpt>
            <trkpt lon="99.694932" lat="12.879292">
                <ele>49.164551</ele>
                <time>2009-02-21T07:30:02Z</time>
            </trkpt>
            <trkpt lon="99.695425" lat="12.878948">
                <ele>44.838623</ele>
                <time>2009-02-21T07:30:19Z</time>
            </trkpt>
            <trkpt lon="99.695896" lat="12.879232">
                <ele>47.722534</ele>
                <time>2009-02-21T07:30:32Z</time>
            </trkpt>
            <trkpt lon="99.696008" lat="12.879317">
                <ele>48.203369</ele>
                <time>2009-02-21T07:30:35Z</time>
            </trkpt>
            <trkpt lon="99.696144" lat="12.879482">
                <ele>48.203369</ele>
                <time>2009-02-21T07:30:40Z</time>
            </trkpt>
            <trkpt lon="99.696324" lat="12.879677">
                <ele>49.645264</ele>
                <time>2009-02-21T07:30:48Z</time>
            </trkpt>
            <trkpt lon="99.696523" lat="12.880058">
                <ele>51.567871</ele>
                <time>2009-02-21T07:31:04Z</time>
            </trkpt>
            <trkpt lon="99.696856" lat="12.880348">
                <ele>53.009766</ele>
                <time>2009-02-21T07:31:19Z</time>
            </trkpt>
            <trkpt lon="99.697102" lat="12.880702">
                <ele>55.413086</ele>
                <time>2009-02-21T07:31:34Z</time>
            </trkpt>
            <trkpt lon="99.697484" lat="12.880888">
                <ele>57.335815</ele>
                <time>2009-02-21T07:31:51Z</time>
            </trkpt>
            <trkpt lon="99.697938" lat="12.880897">
                <ele>58.297119</ele>
                <time>2009-02-21T07:32:07Z</time>
            </trkpt>
            <trkpt lon="99.698498" lat="12.880873">
                <ele>59.739136</ele>
                <time>2009-02-21T07:32:27Z</time>
            </trkpt>
            <trkpt lon="99.698970" lat="12.880921">
                <ele>61.181030</ele>
                <time>2009-02-21T07:32:45Z</time>
            </trkpt>
            <trkpt lon="99.699290" lat="12.881048">
                <ele>62.622925</ele>
                <time>2009-02-21T07:32:59Z</time>
            </trkpt>
            <trkpt lon="99.699625" lat="12.881011">
                <ele>64.065063</ele>
                <time>2009-02-21T07:33:12Z</time>
            </trkpt>
            <trkpt lon="99.699699" lat="12.880980">
                <ele>64.065063</ele>
                <time>2009-02-21T07:33:14Z</time>
            </trkpt>
            <trkpt lon="99.699908" lat="12.880883">
                <ele>63.103638</ele>
                <time>2009-02-21T07:33:19Z</time>
            </trkpt>
            <trkpt lon="99.700159" lat="12.880603">
                <ele>62.622925</ele>
                <time>2009-02-21T07:33:31Z</time>
            </trkpt>
            <trkpt lon="99.700368" lat="12.880430">
                <ele>64.065063</ele>
                <time>2009-02-21T07:33:44Z</time>
            </trkpt>
            <trkpt lon="99.700748" lat="12.880407">
                <ele>65.026367</ele>
                <time>2009-02-21T07:34:00Z</time>
            </trkpt>
            <trkpt lon="99.701196" lat="12.880465">
                <ele>65.026367</ele>
                <time>2009-02-21T07:34:15Z</time>
            </trkpt>
            <trkpt lon="99.701753" lat="12.880353">
                <ele>65.987671</ele>
                <time>2009-02-21T07:34:34Z</time>
            </trkpt>
            <trkpt lon="99.701777" lat="12.880352">
                <ele>66.468262</ele>
                <time>2009-02-21T07:34:35Z</time>
            </trkpt>
            <trkpt lon="99.701848" lat="12.879816">
                <ele>65.507080</ele>
                <time>2009-02-21T07:34:49Z</time>
            </trkpt>
            <trkpt lon="99.701852" lat="12.879404">
                <ele>63.584351</ele>
                <time>2009-02-21T07:34:58Z</time>
            </trkpt>
            <trkpt lon="99.701896" lat="12.879274">
                <ele>62.622925</ele>
                <time>2009-02-21T07:35:01Z</time>
            </trkpt>
            <trkpt lon="99.701898" lat="12.878696">
                <ele>62.142334</ele>
                <time>2009-02-21T07:35:15Z</time>
            </trkpt>
            <trkpt lon="99.701924" lat="12.878244">
                <ele>60.219727</ele>
                <time>2009-02-21T07:35:25Z</time>
            </trkpt>
            <trkpt lon="99.702017" lat="12.878056">
                <ele>59.258423</ele>
                <time>2009-02-21T07:35:30Z</time>
            </trkpt>
            <trkpt lon="99.702062" lat="12.877896">
                <ele>59.258423</ele>
                <time>2009-02-21T07:35:34Z</time>
            </trkpt>
            <trkpt lon="99.702262" lat="12.877521">
                <ele>56.855103</ele>
                <time>2009-02-21T07:35:47Z</time>
            </trkpt>
            <trkpt lon="99.702559" lat="12.877480">
                <ele>55.893799</ele>
                <time>2009-02-21T07:35:55Z</time>
            </trkpt>
            <trkpt lon="99.702649" lat="12.877271">
                <ele>55.413086</ele>
                <time>2009-02-21T07:36:01Z</time>
            </trkpt>
            <trkpt lon="99.702891" lat="12.876706">
                <ele>53.009766</ele>
                <time>2009-02-21T07:36:13Z</time>
            </trkpt>
            <trkpt lon="99.703386" lat="12.876368">
                <ele>53.971191</ele>
                <time>2009-02-21T07:36:27Z</time>
            </trkpt>
            <trkpt lon="99.703610" lat="12.876148">
                <ele>54.451782</ele>
                <time>2009-02-21T07:36:39Z</time>
            </trkpt>
            <trkpt lon="99.703646" lat="12.876121">
                <ele>56.374512</ele>
                <time>2009-02-21T07:36:51Z</time>
            </trkpt>
            <trkpt lon="99.703675" lat="12.876120">
                <ele>56.855103</ele>
                <time>2009-02-21T07:37:14Z</time>
            </trkpt>
            <trkpt lon="99.703645" lat="12.876170">
                <ele>55.893799</ele>
                <time>2009-02-21T07:37:19Z</time>
            </trkpt>
            <trkpt lon="99.703344" lat="12.876407">
                <ele>55.413086</ele>
                <time>2009-02-21T07:37:34Z</time>
            </trkpt>
            <trkpt lon="99.702972" lat="12.876679">
                <ele>53.490479</ele>
                <time>2009-02-21T07:37:48Z</time>
            </trkpt>
            <trkpt lon="99.702726" lat="12.877090">
                <ele>55.413086</ele>
                <time>2009-02-21T07:38:05Z</time>
            </trkpt>
            <trkpt lon="99.702557" lat="12.877645">
                <ele>57.816528</ele>
                <time>2009-02-21T07:38:25Z</time>
            </trkpt>
            <trkpt lon="99.702517" lat="12.878108">
                <ele>60.700317</ele>
                <time>2009-02-21T07:38:43Z</time>
            </trkpt>
            <trkpt lon="99.702581" lat="12.878638">
                <ele>60.219727</ele>
                <time>2009-02-21T07:39:02Z</time>
            </trkpt>
            <trkpt lon="99.702734" lat="12.879026">
                <ele>60.700317</ele>
                <time>2009-02-21T07:39:16Z</time>
            </trkpt>
            <trkpt lon="99.702920" lat="12.879490">
                <ele>62.622925</ele>
                <time>2009-02-21T07:39:33Z</time>
            </trkpt>
            <trkpt lon="99.703122" lat="12.880025">
                <ele>63.103638</ele>
                <time>2009-02-21T07:39:50Z</time>
            </trkpt>
            <trkpt lon="99.703255" lat="12.880538">
                <ele>64.065063</ele>
                <time>2009-02-21T07:40:06Z</time>
            </trkpt>
            <trkpt lon="99.703320" lat="12.880756">
                <ele>66.948975</ele>
                <time>2009-02-21T07:40:21Z</time>
            </trkpt>
            <trkpt lon="99.703485" lat="12.881127">
                <ele>66.948975</ele>
                <time>2009-02-21T07:40:35Z</time>
            </trkpt>
            <trkpt lon="99.703674" lat="12.881767">
                <ele>64.545654</ele>
                <time>2009-02-21T07:40:53Z</time>
            </trkpt>
            <trkpt lon="99.703673" lat="12.881786">
                <ele>64.545654</ele>
                <time>2009-02-21T07:40:54Z</time>
            </trkpt>
            <trkpt lon="99.703615" lat="12.881814">
                <ele>64.545654</ele>
                <time>2009-02-21T07:40:58Z</time>
            </trkpt>
            <trkpt lon="99.703208" lat="12.881773">
                <ele>63.584351</ele>
                <time>2009-02-21T07:41:18Z</time>
            </trkpt>
            <trkpt lon="99.702945" lat="12.881832">
                <ele>66.948975</ele>
                <time>2009-02-21T07:41:39Z</time>
            </trkpt>
            <trkpt lon="99.702675" lat="12.881868">
                <ele>71.274902</ele>
                <time>2009-02-21T07:41:59Z</time>
            </trkpt>
            <trkpt lon="99.702486" lat="12.881854">
                <ele>73.197632</ele>
                <time>2009-02-21T07:42:15Z</time>
            </trkpt>
            <trkpt lon="99.702418" lat="12.881865">
                <ele>75.120239</ele>
                <time>2009-02-21T07:42:28Z</time>
            </trkpt>
            <trkpt lon="99.702356" lat="12.881867">
                <ele>74.639526</ele>
                <time>2009-02-21T07:42:33Z</time>
            </trkpt>
            <trkpt lon="99.701950" lat="12.881831">
                <ele>70.794190</ele>
                <time>2009-02-21T07:42:53Z</time>
            </trkpt>
            <trkpt lon="99.701877" lat="12.881818">
                <ele>71.274902</ele>
                <time>2009-02-21T07:42:59Z</time>
            </trkpt>
            <trkpt lon="99.701807" lat="12.881847">
                <ele>72.236206</ele>
                <time>2009-02-21T07:43:04Z</time>
            </trkpt>
            <trkpt lon="99.701705" lat="12.882175">
                <ele>73.197632</ele>
                <time>2009-02-21T07:43:20Z</time>
            </trkpt>
            <trkpt lon="99.701571" lat="12.882568">
                <ele>76.562134</ele>
                <time>2009-02-21T07:43:34Z</time>
            </trkpt>
            <trkpt lon="99.701538" lat="12.882741">
                <ele>76.562134</ele>
                <time>2009-02-21T07:43:38Z</time>
            </trkpt>
            <trkpt lon="99.701268" lat="12.883237">
                <ele>76.562134</ele>
                <time>2009-02-21T07:43:53Z</time>
            </trkpt>
            <trkpt lon="99.701266" lat="12.883617">
                <ele>74.158813</ele>
                <time>2009-02-21T07:44:05Z</time>
            </trkpt>
            <trkpt lon="99.701307" lat="12.883948">
                <ele>73.197632</ele>
                <time>2009-02-21T07:44:16Z</time>
            </trkpt>
            <trkpt lon="99.701585" lat="12.884119">
                <ele>71.755493</ele>
                <time>2009-02-21T07:44:30Z</time>
            </trkpt>
            <trkpt lon="99.701590" lat="12.884120">
                <ele>71.274902</ele>
                <time>2009-02-21T07:44:52Z</time>
            </trkpt>
            <trkpt lon="99.701648" lat="12.884088">
                <ele>72.236206</ele>
                <time>2009-02-21T07:45:04Z</time>
            </trkpt>
            <trkpt lon="99.701569" lat="12.884265">
                <ele>70.794190</ele>
                <time>2009-02-21T07:45:16Z</time>
            </trkpt>
            <trkpt lon="99.701592" lat="12.884270">
                <ele>71.755493</ele>
                <time>2009-02-21T07:45:39Z</time>
            </trkpt>
            <trkpt lon="99.701580" lat="12.884264">
                <ele>74.158813</ele>
                <time>2009-02-21T07:46:11Z</time>
            </trkpt>
            <trkpt lon="99.701591" lat="12.884261">
                <ele>73.678223</ele>
                <time>2009-02-21T07:46:22Z</time>
            </trkpt>
            <trkpt lon="99.701627" lat="12.884199">
                <ele>73.678223</ele>
                <time>2009-02-21T07:46:27Z</time>
            </trkpt>
            <trkpt lon="99.701667" lat="12.884138">
                <ele>72.236206</ele>
                <time>2009-02-21T07:46:39Z</time>
            </trkpt>
            <trkpt lon="99.701673" lat="12.884140">
                <ele>72.716919</ele>
                <time>2009-02-21T07:47:31Z</time>
            </trkpt>
            <trkpt lon="99.701667" lat="12.884144">
                <ele>73.197632</ele>
                <time>2009-02-21T07:47:56Z</time>
            </trkpt>
            <trkpt lon="99.701656" lat="12.884154">
                <ele>74.158813</ele>
                <time>2009-02-21T07:48:15Z</time>
            </trkpt>
            <trkpt lon="99.701545" lat="12.884139">
                <ele>73.678223</ele>
                <time>2009-02-21T07:48:22Z</time>
            </trkpt>
            <trkpt lon="99.701466" lat="12.884117">
                <ele>73.197632</ele>
                <time>2009-02-21T07:48:33Z</time>
            </trkpt>
            <trkpt lon="99.701559" lat="12.884216">
                <ele>72.236206</ele>
                <time>2009-02-21T07:48:40Z</time>
            </trkpt>
            <trkpt lon="99.701877" lat="12.884745">
                <ele>69.352295</ele>
                <time>2009-02-21T07:48:54Z</time>
            </trkpt>
            <trkpt lon="99.702386" lat="12.885622">
                <ele>65.026367</ele>
                <time>2009-02-21T07:49:10Z</time>
            </trkpt>
            <trkpt lon="99.702646" lat="12.886360">
                <ele>65.987671</ele>
                <time>2009-02-21T07:49:25Z</time>
            </trkpt>
            <trkpt lon="99.702783" lat="12.887128">
                <ele>67.429688</ele>
                <time>2009-02-21T07:49:44Z</time>
            </trkpt>
            <trkpt lon="99.702956" lat="12.887905">
                <ele>70.313477</ele>
                <time>2009-02-21T07:50:05Z</time>
            </trkpt>
            <trkpt lon="99.703121" lat="12.888341">
                <ele>71.274902</ele>
                <time>2009-02-21T07:50:20Z</time>
            </trkpt>
            <trkpt lon="99.703402" lat="12.888839">
                <ele>72.716919</ele>
                <time>2009-02-21T07:50:39Z</time>
            </trkpt>
            <trkpt lon="99.703635" lat="12.889185">
                <ele>74.158813</ele>
                <time>2009-02-21T07:50:55Z</time>
            </trkpt>
            <trkpt lon="99.703896" lat="12.889539">
                <ele>78.484741</ele>
                <time>2009-02-21T07:51:15Z</time>
            </trkpt>
            <trkpt lon="99.703843" lat="12.889819">
                <ele>78.965454</ele>
                <time>2009-02-21T07:51:28Z</time>
            </trkpt>
            <trkpt lon="99.703322" lat="12.890346">
                <ele>79.446045</ele>
                <time>2009-02-21T07:51:44Z</time>
            </trkpt>
            <trkpt lon="99.703243" lat="12.890403">
                <ele>79.926636</ele>
                <time>2009-02-21T07:51:46Z</time>
            </trkpt>
            <trkpt lon="99.702860" lat="12.890461">
                <ele>79.926636</ele>
                <time>2009-02-21T07:51:54Z</time>
            </trkpt>
            <trkpt lon="99.701878" lat="12.890238">
                <ele>73.197632</ele>
                <time>2009-02-21T07:52:10Z</time>
            </trkpt>
            <trkpt lon="99.700812" lat="12.890325">
                <ele>68.871582</ele>
                <time>2009-02-21T07:52:22Z</time>
            </trkpt>
            <trkpt lon="99.699997" lat="12.890688">
                <ele>69.352295</ele>
                <time>2009-02-21T07:52:35Z</time>
            </trkpt>
            <trkpt lon="99.699341" lat="12.891223">
                <ele>70.794190</ele>
                <time>2009-02-21T07:52:51Z</time>
            </trkpt>
            <trkpt lon="99.698469" lat="12.892146">
                <ele>70.794190</ele>
                <time>2009-02-21T07:53:14Z</time>
            </trkpt>
            <trkpt lon="99.698082" lat="12.893111">
                <ele>71.755493</ele>
                <time>2009-02-21T07:53:33Z</time>
            </trkpt>
            <trkpt lon="99.698018" lat="12.893487">
                <ele>73.197632</ele>
                <time>2009-02-21T07:53:42Z</time>
            </trkpt>
            <trkpt lon="99.697669" lat="12.893447">
                <ele>73.197632</ele>
                <time>2009-02-21T07:53:50Z</time>
            </trkpt>
            <trkpt lon="99.696970" lat="12.893335">
                <ele>72.716919</ele>
                <time>2009-02-21T07:54:07Z</time>
            </trkpt>
            <trkpt lon="99.696890" lat="12.893301">
                <ele>72.716919</ele>
                <time>2009-02-21T07:54:12Z</time>
            </trkpt>
            <trkpt lon="99.696731" lat="12.893309">
                <ele>72.236206</ele>
                <time>2009-02-21T07:54:26Z</time>
            </trkpt>
            <trkpt lon="99.696744" lat="12.893310">
                <ele>72.236206</ele>
                <time>2009-02-21T07:54:27Z</time>
            </trkpt>
            <trkpt lon="99.696888" lat="12.893322">
                <ele>72.716919</ele>
                <time>2009-02-21T07:54:34Z</time>
            </trkpt>
            <trkpt lon="99.696930" lat="12.893469">
                <ele>73.678223</ele>
                <time>2009-02-21T07:54:41Z</time>
            </trkpt>
            <trkpt lon="99.696827" lat="12.893878">
                <ele>77.042847</ele>
                <time>2009-02-21T07:55:00Z</time>
            </trkpt>
            <trkpt lon="99.696780" lat="12.893914">
                <ele>77.042847</ele>
                <time>2009-02-21T07:55:04Z</time>
            </trkpt>
            <trkpt lon="99.696750" lat="12.893954">
                <ele>77.523438</ele>
                <time>2009-02-21T07:55:09Z</time>
            </trkpt>
            <trkpt lon="99.696734" lat="12.893967">
                <ele>77.042847</ele>
                <time>2009-02-21T07:55:11Z</time>
            </trkpt>
            <trkpt lon="99.696699" lat="12.894012">
                <ele>77.523438</ele>
                <time>2009-02-21T07:55:15Z</time>
            </trkpt>
            <trkpt lon="99.696446" lat="12.894186">
                <ele>78.004028</ele>
                <time>2009-02-21T07:55:29Z</time>
            </trkpt>
            <trkpt lon="99.696425" lat="12.894220">
                <ele>77.523438</ele>
                <time>2009-02-21T07:55:31Z</time>
            </trkpt>
            <trkpt lon="99.696435" lat="12.894261">
                <ele>78.004028</ele>
                <time>2009-02-21T07:55:33Z</time>
            </trkpt>
            <trkpt lon="99.696471" lat="12.894337">
                <ele>78.484741</ele>
                <time>2009-02-21T07:55:38Z</time>
            </trkpt>
            <trkpt lon="99.696456" lat="12.894510">
                <ele>79.446045</ele>
                <time>2009-02-21T07:55:47Z</time>
            </trkpt>
            <trkpt lon="99.696501" lat="12.894574">
                <ele>79.926636</ele>
                <time>2009-02-21T07:55:53Z</time>
            </trkpt>
            <trkpt lon="99.696365" lat="12.894858">
                <ele>79.926636</ele>
                <time>2009-02-21T07:56:05Z</time>
            </trkpt>
            <trkpt lon="99.696169" lat="12.895186">
                <ele>81.368774</ele>
                <time>2009-02-21T07:56:21Z</time>
            </trkpt>
            <trkpt lon="99.695998" lat="12.895473">
                <ele>82.330078</ele>
                <time>2009-02-21T07:56:34Z</time>
            </trkpt>
            <trkpt lon="99.695901" lat="12.895466">
                <ele>81.368774</ele>
                <time>2009-02-21T07:56:38Z</time>
            </trkpt>
            <trkpt lon="99.695360" lat="12.895242">
                <ele>76.562134</ele>
                <time>2009-02-21T07:56:54Z</time>
            </trkpt>
            <trkpt lon="99.694656" lat="12.894992">
                <ele>72.716919</ele>
                <time>2009-02-21T07:57:10Z</time>
            </trkpt>
            <trkpt lon="99.694447" lat="12.894956">
                <ele>72.236206</ele>
                <time>2009-02-21T07:57:18Z</time>
            </trkpt>
            <trkpt lon="99.694374" lat="12.895019">
                <ele>71.755493</ele>
                <time>2009-02-21T07:57:22Z</time>
            </trkpt>
            <trkpt lon="99.694306" lat="12.895083">
                <ele>71.274902</ele>
                <time>2009-02-21T07:57:26Z</time>
            </trkpt>
            <trkpt lon="99.694100" lat="12.895180">
                <ele>71.274902</ele>
                <time>2009-02-21T07:57:35Z</time>
            </trkpt>
            <trkpt lon="99.694122" lat="12.895268">
                <ele>71.274902</ele>
                <time>2009-02-21T07:57:40Z</time>
            </trkpt>
            <trkpt lon="99.694166" lat="12.895428">
                <ele>70.313477</ele>
                <time>2009-02-21T07:57:47Z</time>
            </trkpt>
            <trkpt lon="99.694100" lat="12.895466">
                <ele>70.313477</ele>
                <time>2009-02-21T07:57:51Z</time>
            </trkpt>
            <trkpt lon="99.693635" lat="12.895415">
                <ele>74.158813</ele>
                <time>2009-02-21T07:58:09Z</time>
            </trkpt>
            <trkpt lon="99.693185" lat="12.895344">
                <ele>76.562134</ele>
                <time>2009-02-21T07:58:25Z</time>
            </trkpt>
            <trkpt lon="99.693088" lat="12.895326">
                <ele>77.523438</ele>
                <time>2009-02-21T07:58:29Z</time>
            </trkpt>
            <trkpt lon="99.693014" lat="12.895410">
                <ele>78.004028</ele>
                <time>2009-02-21T07:58:34Z</time>
            </trkpt>
            <trkpt lon="99.692844" lat="12.895887">
                <ele>79.446045</ele>
                <time>2009-02-21T07:58:53Z</time>
            </trkpt>
            <trkpt lon="99.692749" lat="12.896207">
                <ele>80.407471</ele>
                <time>2009-02-21T07:59:09Z</time>
            </trkpt>
            <trkpt lon="99.692626" lat="12.896525">
                <ele>81.849365</ele>
                <time>2009-02-21T07:59:23Z</time>
            </trkpt>
            <trkpt lon="99.692400" lat="12.897063">
                <ele>81.368774</ele>
                <time>2009-02-21T07:59:39Z</time>
            </trkpt>
            <trkpt lon="99.692210" lat="12.897711">
                <ele>80.888184</ele>
                <time>2009-02-21T07:59:54Z</time>
            </trkpt>
            <trkpt lon="99.692102" lat="12.898261">
                <ele>84.733398</ele>
                <time>2009-02-21T08:00:14Z</time>
            </trkpt>
            <trkpt lon="99.692044" lat="12.898577">
                <ele>86.656006</ele>
                <time>2009-02-21T08:00:30Z</time>
            </trkpt>
            <trkpt lon="99.691880" lat="12.898973">
                <ele>86.656006</ele>
                <time>2009-02-21T08:00:46Z</time>
            </trkpt>
            <trkpt lon="99.691694" lat="12.899498">
                <ele>86.656006</ele>
                <time>2009-02-21T08:00:59Z</time>
            </trkpt>
            <trkpt lon="99.691633" lat="12.899517">
                <ele>85.694580</ele>
                <time>2009-02-21T08:01:08Z</time>
            </trkpt>
            <trkpt lon="99.691550" lat="12.899525">
                <ele>86.656006</ele>
                <time>2009-02-21T08:01:19Z</time>
            </trkpt>
            <trkpt lon="99.691530" lat="12.899506">
                <ele>85.694580</ele>
                <time>2009-02-21T08:01:24Z</time>
            </trkpt>
            <trkpt lon="99.691502" lat="12.899503">
                <ele>85.694580</ele>
                <time>2009-02-21T08:01:27Z</time>
            </trkpt>
            <trkpt lon="99.691482" lat="12.899517">
                <ele>85.213989</ele>
                <time>2009-02-21T08:01:30Z</time>
            </trkpt>
            <trkpt lon="99.691409" lat="12.899549">
                <ele>85.694580</ele>
                <time>2009-02-21T08:01:37Z</time>
            </trkpt>
            <trkpt lon="99.691203" lat="12.899780">
                <ele>85.694580</ele>
                <time>2009-02-21T08:01:50Z</time>
            </trkpt>
            <trkpt lon="99.691090" lat="12.899852">
                <ele>85.694580</ele>
                <time>2009-02-21T08:01:53Z</time>
            </trkpt>
            <trkpt lon="99.690854" lat="12.900031">
                <ele>85.694580</ele>
                <time>2009-02-21T08:02:00Z</time>
            </trkpt>
            <trkpt lon="99.690554" lat="12.900357">
                <ele>85.694580</ele>
                <time>2009-02-21T08:02:10Z</time>
            </trkpt>
            <trkpt lon="99.690459" lat="12.900452">
                <ele>85.694580</ele>
                <time>2009-02-21T08:02:13Z</time>
            </trkpt>
            <trkpt lon="99.690223" lat="12.900641">
                <ele>86.175293</ele>
                <time>2009-02-21T08:02:20Z</time>
            </trkpt>
            <trkpt lon="99.689428" lat="12.901108">
                <ele>87.136597</ele>
                <time>2009-02-21T08:02:40Z</time>
            </trkpt>
            <trkpt lon="99.689277" lat="12.901199">
                <ele>87.136597</ele>
                <time>2009-02-21T08:02:44Z</time>
            </trkpt>
            <trkpt lon="99.688763" lat="12.901950">
                <ele>88.098022</ele>
                <time>2009-02-21T08:03:04Z</time>
            </trkpt>
            <trkpt lon="99.688399" lat="12.902614">
                <ele>88.578735</ele>
                <time>2009-02-21T08:03:23Z</time>
            </trkpt>
            <trkpt lon="99.688359" lat="12.902682">
                <ele>88.578735</ele>
                <time>2009-02-21T08:03:25Z</time>
            </trkpt>
            <trkpt lon="99.688108" lat="12.902793">
                <ele>89.059326</ele>
                <time>2009-02-21T08:03:32Z</time>
            </trkpt>
            <trkpt lon="99.687303" lat="12.902734">
                <ele>88.578735</ele>
                <time>2009-02-21T08:03:52Z</time>
            </trkpt>
            <trkpt lon="99.686803" lat="12.902883">
                <ele>88.578735</ele>
                <time>2009-02-21T08:04:07Z</time>
            </trkpt>
            <trkpt lon="99.686509" lat="12.903058">
                <ele>89.059326</ele>
                <time>2009-02-21T08:04:20Z</time>
            </trkpt>
            <trkpt lon="99.686178" lat="12.903262">
                <ele>90.501343</ele>
                <time>2009-02-21T08:04:35Z</time>
            </trkpt>
            <trkpt lon="99.685707" lat="12.903601">
                <ele>92.904541</ele>
                <time>2009-02-21T08:04:53Z</time>
            </trkpt>
            <trkpt lon="99.685085" lat="12.903978">
                <ele>94.827148</ele>
                <time>2009-02-21T08:05:12Z</time>
            </trkpt>
            <trkpt lon="99.684306" lat="12.904460">
                <ele>97.711182</ele>
                <time>2009-02-21T08:05:35Z</time>
            </trkpt>
            <trkpt lon="99.684207" lat="12.904673">
                <ele>99.153076</ele>
                <time>2009-02-21T08:05:43Z</time>
            </trkpt>
            <trkpt lon="99.684228" lat="12.904881">
                <ele>98.672485</ele>
                <time>2009-02-21T08:05:52Z</time>
            </trkpt>
            <trkpt lon="99.684261" lat="12.904877">
                <ele>102.517700</ele>
                <time>2009-02-21T08:06:04Z</time>
            </trkpt>
            <trkpt lon="99.684170" lat="12.904790">
                <ele>109.246948</ele>
                <time>2009-02-21T08:45:43Z</time>
            </trkpt>
            <trkpt lon="99.684156" lat="12.904490">
                <ele>102.517700</ele>
                <time>2009-02-21T08:45:55Z</time>
            </trkpt>
            <trkpt lon="99.683990" lat="12.904493">
                <ele>100.595093</ele>
                <time>2009-02-21T08:46:00Z</time>
            </trkpt>
            <trkpt lon="99.683302" lat="12.904580">
                <ele>100.595093</ele>
                <time>2009-02-21T08:46:19Z</time>
            </trkpt>
            <trkpt lon="99.683035" lat="12.904643">
                <ele>99.633789</ele>
                <time>2009-02-21T08:46:27Z</time>
            </trkpt>
            <trkpt lon="99.683255" lat="12.905119">
                <ele>99.633789</ele>
                <time>2009-02-21T08:46:40Z</time>
            </trkpt>
            <trkpt lon="99.683630" lat="12.905849">
                <ele>99.153076</ele>
                <time>2009-02-21T08:46:56Z</time>
            </trkpt>
            <trkpt lon="99.683574" lat="12.906693">
                <ele>100.114502</ele>
                <time>2009-02-21T08:47:13Z</time>
            </trkpt>
            <trkpt lon="99.683126" lat="12.907327">
                <ele>101.556397</ele>
                <time>2009-02-21T08:47:29Z</time>
            </trkpt>
            <trkpt lon="99.682614" lat="12.907619">
                <ele>101.556397</ele>
                <time>2009-02-21T08:47:45Z</time>
            </trkpt>
            <trkpt lon="99.682126" lat="12.907761">
                <ele>104.921020</ele>
                <time>2009-02-21T08:48:05Z</time>
            </trkpt>
            <trkpt lon="99.681762" lat="12.908029">
                <ele>107.324341</ele>
                <time>2009-02-21T08:48:22Z</time>
            </trkpt>
            <trkpt lon="99.681441" lat="12.908489">
                <ele>112.130981</ele>
                <time>2009-02-21T08:48:40Z</time>
            </trkpt>
            <trkpt lon="99.681358" lat="12.908789">
                <ele>112.130981</ele>
                <time>2009-02-21T08:48:49Z</time>
            </trkpt>
            <trkpt lon="99.681410" lat="12.908860">
                <ele>112.130981</ele>
                <time>2009-02-21T08:48:54Z</time>
            </trkpt>
            <trkpt lon="99.681485" lat="12.908938">
                <ele>111.169556</ele>
                <time>2009-02-21T08:48:57Z</time>
            </trkpt>
            <trkpt lon="99.682009" lat="12.909216">
                <ele>107.324341</ele>
                <time>2009-02-21T08:49:09Z</time>
            </trkpt>
            <trkpt lon="99.682015" lat="12.909304">
                <ele>106.363037</ele>
                <time>2009-02-21T08:49:14Z</time>
            </trkpt>
            <trkpt lon="99.682001" lat="12.909455">
                <ele>104.921020</ele>
                <time>2009-02-21T08:49:18Z</time>
            </trkpt>
            <trkpt lon="99.681929" lat="12.909581">
                <ele>105.401733</ele>
                <time>2009-02-21T08:49:22Z</time>
            </trkpt>
            <trkpt lon="99.681788" lat="12.909967">
                <ele>106.843628</ele>
                <time>2009-02-21T08:49:35Z</time>
            </trkpt>
            <trkpt lon="99.681709" lat="12.910532">
                <ele>107.324341</ele>
                <time>2009-02-21T08:49:49Z</time>
            </trkpt>
            <trkpt lon="99.681691" lat="12.910628">
                <ele>107.324341</ele>
                <time>2009-02-21T08:49:51Z</time>
            </trkpt>
            <trkpt lon="99.681656" lat="12.910890">
                <ele>106.843628</ele>
                <time>2009-02-21T08:49:56Z</time>
            </trkpt>
            <trkpt lon="99.681331" lat="12.911061">
                <ele>103.479004</ele>
                <time>2009-02-21T08:50:02Z</time>
            </trkpt>
            <trkpt lon="99.680467" lat="12.911233">
                <ele>100.595093</ele>
                <time>2009-02-21T08:50:16Z</time>
            </trkpt>
            <trkpt lon="99.679577" lat="12.911366">
                <ele>98.191895</ele>
                <time>2009-02-21T08:50:30Z</time>
            </trkpt>
            <trkpt lon="99.678238" lat="12.911860">
                <ele>97.711182</ele>
                <time>2009-02-21T08:50:51Z</time>
            </trkpt>
            <trkpt lon="99.677606" lat="12.912372">
                <ele>95.307739</ele>
                <time>2009-02-21T08:51:04Z</time>
            </trkpt>
            <trkpt lon="99.677026" lat="12.913416">
                <ele>92.423950</ele>
                <time>2009-02-21T08:51:22Z</time>
            </trkpt>
            <trkpt lon="99.676786" lat="12.913922">
                <ele>90.020630</ele>
                <time>2009-02-21T08:51:32Z</time>
            </trkpt>
            <trkpt lon="99.676950" lat="12.914211">
                <ele>86.175293</ele>
                <time>2009-02-21T08:51:43Z</time>
            </trkpt>
            <trkpt lon="99.677358" lat="12.914584">
                <ele>84.252685</ele>
                <time>2009-02-21T08:51:59Z</time>
            </trkpt>
            <trkpt lon="99.677406" lat="12.914620">
                <ele>84.733398</ele>
                <time>2009-02-21T08:52:11Z</time>
            </trkpt>
            <trkpt lon="99.677521" lat="12.914759">
                <ele>85.694580</ele>
                <time>2009-02-21T08:52:29Z</time>
            </trkpt>
            <trkpt lon="99.677580" lat="12.914897">
                <ele>86.656006</ele>
                <time>2009-02-21T08:52:45Z</time>
            </trkpt>
            <trkpt lon="99.677665" lat="12.915167">
                <ele>85.694580</ele>
                <time>2009-02-21T08:52:59Z</time>
            </trkpt>
            <trkpt lon="99.677929" lat="12.915718">
                <ele>84.733398</ele>
                <time>2009-02-21T08:53:20Z</time>
            </trkpt>
            <trkpt lon="99.678142" lat="12.916212">
                <ele>86.175293</ele>
                <time>2009-02-21T08:53:39Z</time>
            </trkpt>
            <trkpt lon="99.678290" lat="12.916563">
                <ele>86.656006</ele>
                <time>2009-02-21T08:53:56Z</time>
            </trkpt>
            <trkpt lon="99.678292" lat="12.916574">
                <ele>87.617188</ele>
                <time>2009-02-21T08:54:13Z</time>
            </trkpt>
            <trkpt lon="99.678273" lat="12.916591">
                <ele>91.462524</ele>
                <time>2009-02-21T08:56:26Z</time>
            </trkpt>
            <trkpt lon="99.678121" lat="12.916779">
                <ele>92.423950</ele>
                <time>2009-02-21T08:56:40Z</time>
            </trkpt>
            <trkpt lon="99.677804" lat="12.917087">
                <ele>93.865845</ele>
                <time>2009-02-21T08:56:55Z</time>
            </trkpt>
            <trkpt lon="99.677477" lat="12.917288">
                <ele>95.788452</ele>
                <time>2009-02-21T08:57:11Z</time>
            </trkpt>
            <trkpt lon="99.677147" lat="12.917465">
                <ele>96.269287</ele>
                <time>2009-02-21T08:57:27Z</time>
            </trkpt>
            <trkpt lon="99.676675" lat="12.917802">
                <ele>97.230469</ele>
                <time>2009-02-21T08:57:43Z</time>
            </trkpt>
            <trkpt lon="99.676273" lat="12.918007">
                <ele>98.672485</ele>
                <time>2009-02-21T08:57:57Z</time>
            </trkpt>
            <trkpt lon="99.675969" lat="12.918086">
                <ele>101.075684</ele>
                <time>2009-02-21T08:58:13Z</time>
            </trkpt>
            <trkpt lon="99.675704" lat="12.918385">
                <ele>104.440430</ele>
                <time>2009-02-21T08:58:30Z</time>
            </trkpt>
            <trkpt lon="99.675511" lat="12.918733">
                <ele>105.401733</ele>
                <time>2009-02-21T08:58:45Z</time>
            </trkpt>
            <trkpt lon="99.675517" lat="12.919244">
                <ele>105.401733</ele>
                <time>2009-02-21T08:58:59Z</time>
            </trkpt>
            <trkpt lon="99.675504" lat="12.919548">
                <ele>107.324341</ele>
                <time>2009-02-21T08:59:11Z</time>
            </trkpt>
            <trkpt lon="99.675480" lat="12.919839">
                <ele>109.727661</ele>
                <time>2009-02-21T08:59:26Z</time>
            </trkpt>
            <trkpt lon="99.675547" lat="12.920294">
                <ele>107.805054</ele>
                <time>2009-02-21T08:59:41Z</time>
            </trkpt>
            <trkpt lon="99.675713" lat="12.920958">
                <ele>103.479004</ele>
                <time>2009-02-21T08:59:53Z</time>
            </trkpt>
            <trkpt lon="99.675862" lat="12.921791">
                <ele>101.075684</ele>
                <time>2009-02-21T09:00:08Z</time>
            </trkpt>
            <trkpt lon="99.675874" lat="12.921886">
                <ele>100.595093</ele>
                <time>2009-02-21T09:00:11Z</time>
            </trkpt>
            <trkpt lon="99.675814" lat="12.921936">
                <ele>100.595093</ele>
                <time>2009-02-21T09:00:15Z</time>
            </trkpt>
            <trkpt lon="99.675524" lat="12.922033">
                <ele>102.037109</ele>
                <time>2009-02-21T09:00:28Z</time>
            </trkpt>
            <trkpt lon="99.675005" lat="12.922267">
                <ele>103.959717</ele>
                <time>2009-02-21T09:00:47Z</time>
            </trkpt>
            <trkpt lon="99.674618" lat="12.922574">
                <ele>105.401733</ele>
                <time>2009-02-21T09:01:04Z</time>
            </trkpt>
            <trkpt lon="99.674217" lat="12.922938">
                <ele>108.766235</ele>
                <time>2009-02-21T09:01:24Z</time>
            </trkpt>
            <trkpt lon="99.673881" lat="12.923238">
                <ele>113.572998</ele>
                <time>2009-02-21T09:01:44Z</time>
            </trkpt>
            <trkpt lon="99.673702" lat="12.923430">
                <ele>118.379395</ele>
                <time>2009-02-21T09:02:20Z</time>
            </trkpt>
            <trkpt lon="99.673152" lat="12.923974">
                <ele>117.898804</ele>
                <time>2009-02-21T09:02:39Z</time>
            </trkpt>
            <trkpt lon="99.672887" lat="12.924211">
                <ele>116.456787</ele>
                <time>2009-02-21T09:02:50Z</time>
            </trkpt>
            <trkpt lon="99.672453" lat="12.924639">
                <ele>117.898804</ele>
                <time>2009-02-21T09:03:07Z</time>
            </trkpt>
            <trkpt lon="99.672137" lat="12.925013">
                <ele>116.456787</ele>
                <time>2009-02-21T09:03:21Z</time>
            </trkpt>
            <trkpt lon="99.671611" lat="12.925295">
                <ele>115.014893</ele>
                <time>2009-02-21T09:03:33Z</time>
            </trkpt>
            <trkpt lon="99.671529" lat="12.925438">
                <ele>115.495605</ele>
                <time>2009-02-21T09:03:37Z</time>
            </trkpt>
            <trkpt lon="99.671592" lat="12.925702">
                <ele>114.053589</ele>
                <time>2009-02-21T09:03:43Z</time>
            </trkpt>
            <trkpt lon="99.671608" lat="12.925918">
                <ele>112.611572</ele>
                <time>2009-02-21T09:03:50Z</time>
            </trkpt>
            <trkpt lon="99.671609" lat="12.926002">
                <ele>110.688843</ele>
                <time>2009-02-21T09:03:52Z</time>
            </trkpt>
            <trkpt lon="99.671722" lat="12.926238">
                <ele>109.727661</ele>
                <time>2009-02-21T09:04:00Z</time>
            </trkpt>
            <trkpt lon="99.671760" lat="12.926581">
                <ele>108.766235</ele>
                <time>2009-02-21T09:04:11Z</time>
            </trkpt>
            <trkpt lon="99.671647" lat="12.926972">
                <ele>108.285645</ele>
                <time>2009-02-21T09:04:21Z</time>
            </trkpt>
            <trkpt lon="99.671568" lat="12.927218">
                <ele>108.285645</ele>
                <time>2009-02-21T09:04:27Z</time>
            </trkpt>
            <trkpt lon="99.671554" lat="12.927304">
                <ele>108.285645</ele>
                <time>2009-02-21T09:04:29Z</time>
            </trkpt>
            <trkpt lon="99.671572" lat="12.927580">
                <ele>107.805054</ele>
                <time>2009-02-21T09:04:35Z</time>
            </trkpt>
            <trkpt lon="99.671566" lat="12.927768">
                <ele>109.727661</ele>
                <time>2009-02-21T09:04:41Z</time>
            </trkpt>
            <trkpt lon="99.671575" lat="12.928192">
                <ele>111.169556</ele>
                <time>2009-02-21T09:04:57Z</time>
            </trkpt>
            <trkpt lon="99.671594" lat="12.928459">
                <ele>113.572998</ele>
                <time>2009-02-21T09:05:11Z</time>
            </trkpt>
            <trkpt lon="99.671628" lat="12.928734">
                <ele>115.495605</ele>
                <time>2009-02-21T09:05:28Z</time>
            </trkpt>
            <trkpt lon="99.671634" lat="12.928881">
                <ele>116.456787</ele>
                <time>2009-02-21T09:05:39Z</time>
            </trkpt>
            <trkpt lon="99.671614" lat="12.928898">
                <ele>116.937500</ele>
                <time>2009-02-21T09:05:41Z</time>
            </trkpt>
            <trkpt lon="99.671592" lat="12.928910">
                <ele>117.418213</ele>
                <time>2009-02-21T09:05:58Z</time>
            </trkpt>
            <trkpt lon="99.671598" lat="12.928933">
                <ele>118.379395</ele>
                <time>2009-02-21T09:06:36Z</time>
            </trkpt>
            <trkpt lon="99.671660" lat="12.928895">
                <ele>117.898804</ele>
                <time>2009-02-21T09:06:41Z</time>
            </trkpt>
            <trkpt lon="99.672087" lat="12.928512">
                <ele>113.572998</ele>
                <time>2009-02-21T09:06:56Z</time>
            </trkpt>
            <trkpt lon="99.672271" lat="12.928327">
                <ele>112.130981</ele>
                <time>2009-02-21T09:07:01Z</time>
            </trkpt>
            <trkpt lon="99.672937" lat="12.927845">
                <ele>108.766235</ele>
                <time>2009-02-21T09:07:14Z</time>
            </trkpt>
            <trkpt lon="99.673390" lat="12.927677">
                <ele>107.324341</ele>
                <time>2009-02-21T09:07:26Z</time>
            </trkpt>
            <trkpt lon="99.673914" lat="12.927466">
                <ele>105.401733</ele>
                <time>2009-02-21T09:07:43Z</time>
            </trkpt>
            <trkpt lon="99.674116" lat="12.927383">
                <ele>102.998291</ele>
                <time>2009-02-21T09:07:55Z</time>
            </trkpt>
            <trkpt lon="99.674114" lat="12.927390">
                <ele>102.517700</ele>
                <time>2009-02-21T09:07:57Z</time>
            </trkpt>
            <trkpt lon="99.673988" lat="12.927543">
                <ele>104.440430</ele>
                <time>2009-02-21T09:08:12Z</time>
            </trkpt>
            <trkpt lon="99.674092" lat="12.927880">
                <ele>104.440430</ele>
                <time>2009-02-21T09:08:26Z</time>
            </trkpt>
            <trkpt lon="99.674103" lat="12.927942">
                <ele>105.401733</ele>
                <time>2009-02-21T09:08:39Z</time>
            </trkpt>
            <trkpt lon="99.674110" lat="12.927922">
                <ele>106.363037</ele>
                <time>2009-02-21T09:08:44Z</time>
            </trkpt>
            <trkpt lon="99.674008" lat="12.927600">
                <ele>105.882446</ele>
                <time>2009-02-21T09:08:56Z</time>
            </trkpt>
            <trkpt lon="99.673792" lat="12.927522">
                <ele>106.843628</ele>
                <time>2009-02-21T09:09:04Z</time>
            </trkpt>
            <trkpt lon="99.673268" lat="12.927728">
                <ele>106.843628</ele>
                <time>2009-02-21T09:09:21Z</time>
            </trkpt>
            <trkpt lon="99.672503" lat="12.928148">
                <ele>109.727661</ele>
                <time>2009-02-21T09:09:44Z</time>
            </trkpt>
            <trkpt lon="99.672151" lat="12.928425">
                <ele>112.611572</ele>
                <time>2009-02-21T09:10:02Z</time>
            </trkpt>
            <trkpt lon="99.671808" lat="12.928745">
                <ele>115.014893</ele>
                <time>2009-02-21T09:10:21Z</time>
            </trkpt>
            <trkpt lon="99.671433" lat="12.929060">
                <ele>115.976196</ele>
                <time>2009-02-21T09:10:40Z</time>
            </trkpt>
            <trkpt lon="99.671051" lat="12.929405">
                <ele>118.860107</ele>
                <time>2009-02-21T09:10:59Z</time>
            </trkpt>
            <trkpt lon="99.671104" lat="12.929642">
                <ele>120.782837</ele>
                <time>2009-02-21T09:11:13Z</time>
            </trkpt>
            <trkpt lon="99.671575" lat="12.930158">
                <ele>121.263550</ele>
                <time>2009-02-21T09:11:32Z</time>
            </trkpt>
            <trkpt lon="99.671981" lat="12.930624">
                <ele>121.263550</ele>
                <time>2009-02-21T09:11:50Z</time>
            </trkpt>
            <trkpt lon="99.672334" lat="12.930984">
                <ele>122.705444</ele>
                <time>2009-02-21T09:12:06Z</time>
            </trkpt>
            <trkpt lon="99.672862" lat="12.931453">
                <ele>117.898804</ele>
                <time>2009-02-21T09:12:17Z</time>
            </trkpt>
            <trkpt lon="99.673263" lat="12.931843">
                <ele>112.611572</ele>
                <time>2009-02-21T09:12:23Z</time>
            </trkpt>
            <trkpt lon="99.673388" lat="12.932291">
                <ele>110.688843</ele>
                <time>2009-02-21T09:12:28Z</time>
            </trkpt>
            <trkpt lon="99.673351" lat="12.934004">
                <ele>104.921020</ele>
                <time>2009-02-21T09:12:47Z</time>
            </trkpt>
            <trkpt lon="99.673112" lat="12.935012">
                <ele>102.517700</ele>
                <time>2009-02-21T09:13:00Z</time>
            </trkpt>
            <trkpt lon="99.672884" lat="12.935323">
                <ele>103.479004</ele>
                <time>2009-02-21T09:13:10Z</time>
            </trkpt>
            <trkpt lon="99.672488" lat="12.935852">
                <ele>104.440430</ele>
                <time>2009-02-21T09:13:31Z</time>
            </trkpt>
            <trkpt lon="99.672394" lat="12.936027">
                <ele>104.921020</ele>
                <time>2009-02-21T09:13:42Z</time>
            </trkpt>
            <trkpt lon="99.672474" lat="12.935980">
                <ele>103.959717</ele>
                <time>2009-02-21T09:13:48Z</time>
            </trkpt>
            <trkpt lon="99.672868" lat="12.935419">
                <ele>102.037109</ele>
                <time>2009-02-21T09:14:06Z</time>
            </trkpt>
            <trkpt lon="99.673333" lat="12.934599">
                <ele>101.075684</ele>
                <time>2009-02-21T09:14:25Z</time>
            </trkpt>
            <trkpt lon="99.673383" lat="12.934108">
                <ele>103.479004</ele>
                <time>2009-02-21T09:14:39Z</time>
            </trkpt>
            <trkpt lon="99.673399" lat="12.933653">
                <ele>105.401733</ele>
                <time>2009-02-21T09:14:59Z</time>
            </trkpt>
            <trkpt lon="99.673412" lat="12.933189">
                <ele>108.285645</ele>
                <time>2009-02-21T09:15:18Z</time>
            </trkpt>
            <trkpt lon="99.673417" lat="12.932737">
                <ele>109.727661</ele>
                <time>2009-02-21T09:15:36Z</time>
            </trkpt>
            <trkpt lon="99.673420" lat="12.932720">
                <ele>110.688843</ele>
                <time>2009-02-21T09:15:56Z</time>
            </trkpt>
            <trkpt lon="99.673428" lat="12.932720">
                <ele>111.650269</ele>
                <time>2009-02-21T09:16:22Z</time>
            </trkpt>
            <trkpt lon="99.673420" lat="12.932527">
                <ele>111.169556</ele>
                <time>2009-02-21T09:16:56Z</time>
            </trkpt>
            <trkpt lon="99.673419" lat="12.932118">
                <ele>112.611572</ele>
                <time>2009-02-21T09:17:10Z</time>
            </trkpt>
            <trkpt lon="99.673406" lat="12.931977">
                <ele>113.092285</ele>
                <time>2009-02-21T09:17:15Z</time>
            </trkpt>
            <trkpt lon="99.673580" lat="12.931933">
                <ele>110.208252</ele>
                <time>2009-02-21T09:17:21Z</time>
            </trkpt>
            <trkpt lon="99.674504" lat="12.932032">
                <ele>106.843628</ele>
                <time>2009-02-21T09:17:38Z</time>
            </trkpt>
            <trkpt lon="99.674759" lat="12.932063">
                <ele>105.882446</ele>
                <time>2009-02-21T09:17:43Z</time>
            </trkpt>
            <trkpt lon="99.674791" lat="12.932143">
                <ele>104.921020</ele>
                <time>2009-02-21T09:17:46Z</time>
            </trkpt>
            <trkpt lon="99.674734" lat="12.932444">
                <ele>103.479004</ele>
                <time>2009-02-21T09:17:53Z</time>
            </trkpt>
            <trkpt lon="99.674853" lat="12.932620">
                <ele>103.479004</ele>
                <time>2009-02-21T09:17:59Z</time>
            </trkpt>
            <trkpt lon="99.675312" lat="12.932709">
                <ele>103.479004</ele>
                <time>2009-02-21T09:18:08Z</time>
            </trkpt>
            <trkpt lon="99.676280" lat="12.933067">
                <ele>99.153076</ele>
                <time>2009-02-21T09:18:27Z</time>
            </trkpt>
            <trkpt lon="99.676891" lat="12.933126">
                <ele>97.230469</ele>
                <time>2009-02-21T09:18:37Z</time>
            </trkpt>
            <trkpt lon="99.677658" lat="12.933249">
                <ele>96.269287</ele>
                <time>2009-02-21T09:18:53Z</time>
            </trkpt>
            <trkpt lon="99.677672" lat="12.933263">
                <ele>96.269287</ele>
                <time>2009-02-21T09:18:55Z</time>
            </trkpt>
            <trkpt lon="99.677710" lat="12.933352">
                <ele>95.788452</ele>
                <time>2009-02-21T09:19:08Z</time>
            </trkpt>
            <trkpt lon="99.677756" lat="12.933427">
                <ele>95.788452</ele>
                <time>2009-02-21T09:19:12Z</time>
            </trkpt>
            <trkpt lon="99.677939" lat="12.933941">
                <ele>94.827148</ele>
                <time>2009-02-21T09:19:28Z</time>
            </trkpt>
            <trkpt lon="99.678130" lat="12.934587">
                <ele>93.865845</ele>
                <time>2009-02-21T09:19:46Z</time>
            </trkpt>
            <trkpt lon="99.678316" lat="12.935231">
                <ele>93.385132</ele>
                <time>2009-02-21T09:20:02Z</time>
            </trkpt>
            <trkpt lon="99.678523" lat="12.935913">
                <ele>94.827148</ele>
                <time>2009-02-21T09:20:22Z</time>
            </trkpt>
            <trkpt lon="99.678676" lat="12.936335">
                <ele>94.827148</ele>
                <time>2009-02-21T09:20:37Z</time>
            </trkpt>
            <trkpt lon="99.678668" lat="12.936332">
                <ele>94.827148</ele>
                <time>2009-02-21T09:20:44Z</time>
            </trkpt>
            <trkpt lon="99.678640" lat="12.936277">
                <ele>95.307739</ele>
                <time>2009-02-21T09:20:48Z</time>
            </trkpt>
            <trkpt lon="99.678804" lat="12.936204">
                <ele>95.307739</ele>
                <time>2009-02-21T09:20:57Z</time>
            </trkpt>
            <trkpt lon="99.678794" lat="12.936204">
                <ele>94.827148</ele>
                <time>2009-02-21T09:21:11Z</time>
            </trkpt>
            <trkpt lon="99.678701" lat="12.936227">
                <ele>94.827148</ele>
                <time>2009-02-21T09:21:16Z</time>
            </trkpt>
            <trkpt lon="99.678642" lat="12.936237">
                <ele>95.307739</ele>
                <time>2009-02-21T09:21:19Z</time>
            </trkpt>
            <trkpt lon="99.678605" lat="12.936205">
                <ele>95.307739</ele>
                <time>2009-02-21T09:21:33Z</time>
            </trkpt>
            <trkpt lon="99.678615" lat="12.936214">
                <ele>95.307739</ele>
                <time>2009-02-21T09:21:44Z</time>
            </trkpt>
            <trkpt lon="99.678706" lat="12.936234">
                <ele>95.307739</ele>
                <time>2009-02-21T09:21:49Z</time>
            </trkpt>
            <trkpt lon="99.678796" lat="12.936215">
                <ele>95.307739</ele>
                <time>2009-02-21T09:21:59Z</time>
            </trkpt>
            <trkpt lon="99.678944" lat="12.936182">
                <ele>94.827148</ele>
                <time>2009-02-21T09:22:12Z</time>
            </trkpt>
            <trkpt lon="99.679378" lat="12.936107">
                <ele>91.943237</ele>
                <time>2009-02-21T09:22:23Z</time>
            </trkpt>
            <trkpt lon="99.679956" lat="12.936095">
                <ele>91.462524</ele>
                <time>2009-02-21T09:22:39Z</time>
            </trkpt>
            <trkpt lon="99.680237" lat="12.936213">
                <ele>93.385132</ele>
                <time>2009-02-21T09:22:50Z</time>
            </trkpt>
            <trkpt lon="99.680499" lat="12.936070">
                <ele>94.346558</ele>
                <time>2009-02-21T09:23:02Z</time>
            </trkpt>
            <trkpt lon="99.680556" lat="12.935981">
                <ele>93.865845</ele>
                <time>2009-02-21T09:23:05Z</time>
            </trkpt>
            <trkpt lon="99.680580" lat="12.935904">
                <ele>93.385132</ele>
                <time>2009-02-21T09:23:07Z</time>
            </trkpt>
            <trkpt lon="99.680797" lat="12.935750">
                <ele>93.385132</ele>
                <time>2009-02-21T09:23:16Z</time>
            </trkpt>
            <trkpt lon="99.681053" lat="12.935772">
                <ele>94.346558</ele>
                <time>2009-02-21T09:23:30Z</time>
            </trkpt>
            <trkpt lon="99.681433" lat="12.935459">
                <ele>93.385132</ele>
                <time>2009-02-21T09:23:45Z</time>
            </trkpt>
            <trkpt lon="99.682035" lat="12.934941">
                <ele>92.904541</ele>
                <time>2009-02-21T09:24:03Z</time>
            </trkpt>
            <trkpt lon="99.682880" lat="12.934389">
                <ele>90.981934</ele>
                <time>2009-02-21T09:24:23Z</time>
            </trkpt>
            <trkpt lon="99.683615" lat="12.933875">
                <ele>89.059326</ele>
                <time>2009-02-21T09:24:40Z</time>
            </trkpt>
            <trkpt lon="99.684138" lat="12.933620">
                <ele>88.578735</ele>
                <time>2009-02-21T09:24:54Z</time>
            </trkpt>
            <trkpt lon="99.684355" lat="12.933966">
                <ele>88.098022</ele>
                <time>2009-02-21T09:25:04Z</time>
            </trkpt>
            <trkpt lon="99.684382" lat="12.934006">
                <ele>88.098022</ele>
                <time>2009-02-21T09:25:05Z</time>
            </trkpt>
            <trkpt lon="99.684780" lat="12.934467">
                <ele>90.501343</ele>
                <time>2009-02-21T09:25:21Z</time>
            </trkpt>
            <trkpt lon="99.685172" lat="12.934844">
                <ele>92.423950</ele>
                <time>2009-02-21T09:25:38Z</time>
            </trkpt>
            <trkpt lon="99.685269" lat="12.934871">
                <ele>92.904541</ele>
                <time>2009-02-21T09:25:48Z</time>
            </trkpt>
            <trkpt lon="99.685257" lat="12.934865">
                <ele>91.462524</ele>
                <time>2009-02-21T09:27:46Z</time>
            </trkpt>
            <trkpt lon="99.685302" lat="12.934794">
                <ele>91.462524</ele>
                <time>2009-02-21T09:27:50Z</time>
            </trkpt>
            <trkpt lon="99.685753" lat="12.934188">
                <ele>90.020630</ele>
                <time>2009-02-21T09:28:07Z</time>
            </trkpt>
            <trkpt lon="99.686342" lat="12.933456">
                <ele>88.098022</ele>
                <time>2009-02-21T09:28:25Z</time>
            </trkpt>
            <trkpt lon="99.686954" lat="12.932742">
                <ele>85.213989</ele>
                <time>2009-02-21T09:28:42Z</time>
            </trkpt>
            <trkpt lon="99.687819" lat="12.931701">
                <ele>83.291382</ele>
                <time>2009-02-21T09:29:05Z</time>
            </trkpt>
            <trkpt lon="99.688663" lat="12.930890">
                <ele>81.368774</ele>
                <time>2009-02-21T09:29:24Z</time>
            </trkpt>
            <trkpt lon="99.689497" lat="12.930369">
                <ele>80.407471</ele>
                <time>2009-02-21T09:29:40Z</time>
            </trkpt>
            <trkpt lon="99.689599" lat="12.930328">
                <ele>80.407471</ele>
                <time>2009-02-21T09:29:42Z</time>
            </trkpt>
            <trkpt lon="99.689815" lat="12.930466">
                <ele>80.888184</ele>
                <time>2009-02-21T09:29:51Z</time>
            </trkpt>
            <trkpt lon="99.690059" lat="12.930953">
                <ele>82.330078</ele>
                <time>2009-02-21T09:30:05Z</time>
            </trkpt>
            <trkpt lon="99.690133" lat="12.931251">
                <ele>81.849365</ele>
                <time>2009-02-21T09:30:12Z</time>
            </trkpt>
            <trkpt lon="99.690141" lat="12.931394">
                <ele>81.849365</ele>
                <time>2009-02-21T09:30:15Z</time>
            </trkpt>
            <trkpt lon="99.690155" lat="12.931757">
                <ele>82.330078</ele>
                <time>2009-02-21T09:30:24Z</time>
            </trkpt>
            <trkpt lon="99.690255" lat="12.932156">
                <ele>81.849365</ele>
                <time>2009-02-21T09:30:33Z</time>
            </trkpt>
            <trkpt lon="99.690408" lat="12.932612">
                <ele>83.771973</ele>
                <time>2009-02-21T09:30:46Z</time>
            </trkpt>
            <trkpt lon="99.690579" lat="12.933321">
                <ele>85.213989</ele>
                <time>2009-02-21T09:31:06Z</time>
            </trkpt>
            <trkpt lon="99.690708" lat="12.933797">
                <ele>87.617188</ele>
                <time>2009-02-21T09:31:22Z</time>
            </trkpt>
            <trkpt lon="99.691031" lat="12.934157">
                <ele>86.656006</ele>
                <time>2009-02-21T09:31:35Z</time>
            </trkpt>
            <trkpt lon="99.691187" lat="12.934260">
                <ele>86.656006</ele>
                <time>2009-02-21T09:31:39Z</time>
            </trkpt>
            <trkpt lon="99.691607" lat="12.934529">
                <ele>85.213989</ele>
                <time>2009-02-21T09:31:52Z</time>
            </trkpt>
            <trkpt lon="99.691566" lat="12.934695">
                <ele>84.252685</ele>
                <time>2009-02-21T09:31:58Z</time>
            </trkpt>
            <trkpt lon="99.691498" lat="12.935140">
                <ele>82.810791</ele>
                <time>2009-02-21T09:32:08Z</time>
            </trkpt>
            <trkpt lon="99.691685" lat="12.935333">
                <ele>81.368774</ele>
                <time>2009-02-21T09:32:14Z</time>
            </trkpt>
            <trkpt lon="99.691879" lat="12.935586">
                <ele>80.407471</ele>
                <time>2009-02-21T09:32:21Z</time>
            </trkpt>
            <trkpt lon="99.691865" lat="12.936340">
                <ele>80.888184</ele>
                <time>2009-02-21T09:32:38Z</time>
            </trkpt>
            <trkpt lon="99.691844" lat="12.936965">
                <ele>82.330078</ele>
                <time>2009-02-21T09:32:52Z</time>
            </trkpt>
            <trkpt lon="99.691812" lat="12.937724">
                <ele>84.252685</ele>
                <time>2009-02-21T09:33:12Z</time>
            </trkpt>
            <trkpt lon="99.691809" lat="12.938401">
                <ele>85.694580</ele>
                <time>2009-02-21T09:33:31Z</time>
            </trkpt>
            <trkpt lon="99.691863" lat="12.939152">
                <ele>87.136597</ele>
                <time>2009-02-21T09:33:55Z</time>
            </trkpt>
            <trkpt lon="99.692141" lat="12.939334">
                <ele>86.175293</ele>
                <time>2009-02-21T09:34:05Z</time>
            </trkpt>
            <trkpt lon="99.692498" lat="12.939478">
                <ele>87.617188</ele>
                <time>2009-02-21T09:34:14Z</time>
            </trkpt>
            <trkpt lon="99.692501" lat="12.939460">
                <ele>87.617188</ele>
                <time>2009-02-21T09:34:17Z</time>
            </trkpt>
            <trkpt lon="99.692447" lat="12.939430">
                <ele>88.098022</ele>
                <time>2009-02-21T09:34:22Z</time>
            </trkpt>
            <trkpt lon="99.692539" lat="12.939178">
                <ele>88.578735</ele>
                <time>2009-02-21T09:34:32Z</time>
            </trkpt>
            <trkpt lon="99.692900" lat="12.938421">
                <ele>88.578735</ele>
                <time>2009-02-21T09:34:51Z</time>
            </trkpt>
            <trkpt lon="99.693261" lat="12.937774">
                <ele>84.733398</ele>
                <time>2009-02-21T09:35:07Z</time>
            </trkpt>
            <trkpt lon="99.693673" lat="12.936956">
                <ele>82.330078</ele>
                <time>2009-02-21T09:35:25Z</time>
            </trkpt>
            <trkpt lon="99.694086" lat="12.936098">
                <ele>80.407471</ele>
                <time>2009-02-21T09:35:44Z</time>
            </trkpt>
            <trkpt lon="99.694212" lat="12.935816">
                <ele>80.407471</ele>
                <time>2009-02-21T09:35:50Z</time>
            </trkpt>
            <trkpt lon="99.694417" lat="12.935467">
                <ele>78.965454</ele>
                <time>2009-02-21T09:36:00Z</time>
            </trkpt>
            <trkpt lon="99.694500" lat="12.935514">
                <ele>78.484741</ele>
                <time>2009-02-21T09:36:05Z</time>
            </trkpt>
            <trkpt lon="99.694807" lat="12.935664">
                <ele>78.965454</ele>
                <time>2009-02-21T09:36:16Z</time>
            </trkpt>
            <trkpt lon="99.695132" lat="12.935838">
                <ele>79.446045</ele>
                <time>2009-02-21T09:36:28Z</time>
            </trkpt>
            <trkpt lon="99.695208" lat="12.935779">
                <ele>78.484741</ele>
                <time>2009-02-21T09:36:32Z</time>
            </trkpt>
            <trkpt lon="99.695392" lat="12.935191">
                <ele>77.042847</ele>
                <time>2009-02-21T09:36:47Z</time>
            </trkpt>
            <trkpt lon="99.695599" lat="12.934636">
                <ele>74.639526</ele>
                <time>2009-02-21T09:37:01Z</time>
            </trkpt>
            <trkpt lon="99.695688" lat="12.934464">
                <ele>73.678223</ele>
                <time>2009-02-21T09:37:13Z</time>
            </trkpt>
            <trkpt lon="99.695714" lat="12.934318">
                <ele>74.158813</ele>
                <time>2009-02-21T09:37:23Z</time>
            </trkpt>
            <trkpt lon="99.695735" lat="12.934299">
                <ele>74.158813</ele>
                <time>2009-02-21T09:37:25Z</time>
            </trkpt>
            <trkpt lon="99.695913" lat="12.934274">
                <ele>73.197632</ele>
                <time>2009-02-21T09:37:38Z</time>
            </trkpt>
            <trkpt lon="99.696063" lat="12.934284">
                <ele>72.716919</ele>
                <time>2009-02-21T09:37:49Z</time>
            </trkpt>
            <trkpt lon="99.696072" lat="12.934271">
                <ele>73.197632</ele>
                <time>2009-02-21T09:37:51Z</time>
            </trkpt>
            <trkpt lon="99.696120" lat="12.934197">
                <ele>73.197632</ele>
                <time>2009-02-21T09:38:03Z</time>
            </trkpt>
            <trkpt lon="99.696204" lat="12.934190">
                <ele>74.158813</ele>
                <time>2009-02-21T09:38:17Z</time>
            </trkpt>
            <trkpt lon="99.696203" lat="12.934190">
                <ele>74.158813</ele>
                <time>2009-02-21T09:38:18Z</time>
            </trkpt>
            <trkpt lon="99.696442" lat="12.934276">
                <ele>74.158813</ele>
                <time>2009-02-21T09:38:32Z</time>
            </trkpt>
            <trkpt lon="99.696622" lat="12.934080">
                <ele>74.639526</ele>
                <time>2009-02-21T09:38:45Z</time>
            </trkpt>
            <trkpt lon="99.696635" lat="12.933948">
                <ele>74.639526</ele>
                <time>2009-02-21T09:38:58Z</time>
            </trkpt>
            <trkpt lon="99.696646" lat="12.933870">
                <ele>76.081421</ele>
                <time>2009-02-21T09:39:13Z</time>
            </trkpt>
            <trkpt lon="99.696642" lat="12.933862">
                <ele>75.600830</ele>
                <time>2009-02-21T09:39:17Z</time>
            </trkpt>
            <trkpt lon="99.696323" lat="12.933750">
                <ele>74.158813</ele>
                <time>2009-02-21T09:39:30Z</time>
            </trkpt>
            <trkpt lon="99.696078" lat="12.933680">
                <ele>74.639526</ele>
                <time>2009-02-21T09:39:43Z</time>
            </trkpt>
            <trkpt lon="99.696029" lat="12.933675">
                <ele>76.081421</ele>
                <time>2009-02-21T09:39:57Z</time>
            </trkpt>
            <trkpt lon="99.696003" lat="12.933660">
                <ele>74.158813</ele>
                <time>2009-02-21T09:40:10Z</time>
            </trkpt>
            <trkpt lon="99.695991" lat="12.933643">
                <ele>75.120239</ele>
                <time>2009-02-21T09:40:23Z</time>
            </trkpt>
            <trkpt lon="99.695778" lat="12.933590">
                <ele>75.600830</ele>
                <time>2009-02-21T09:40:36Z</time>
            </trkpt>
            <trkpt lon="99.695600" lat="12.933548">
                <ele>76.081421</ele>
                <time>2009-02-21T09:40:47Z</time>
            </trkpt>
            <trkpt lon="99.695594" lat="12.933533">
                <ele>76.081421</ele>
                <time>2009-02-21T09:40:49Z</time>
            </trkpt>
            <trkpt lon="99.695573" lat="12.933458">
                <ele>76.081421</ele>
                <time>2009-02-21T09:40:53Z</time>
            </trkpt>
            <trkpt lon="99.695529" lat="12.933362">
                <ele>75.600830</ele>
                <time>2009-02-21T09:41:00Z</time>
            </trkpt>
            <trkpt lon="99.695394" lat="12.933419">
                <ele>76.081421</ele>
                <time>2009-02-21T09:41:06Z</time>
            </trkpt>
            <trkpt lon="99.695031" lat="12.933354">
                <ele>77.042847</ele>
                <time>2009-02-21T09:41:21Z</time>
            </trkpt>
            <trkpt lon="99.694473" lat="12.933162">
                <ele>78.004028</ele>
                <time>2009-02-21T09:41:38Z</time>
            </trkpt>
            <trkpt lon="99.693900" lat="12.932947">
                <ele>78.965454</ele>
                <time>2009-02-21T09:41:55Z</time>
            </trkpt>
            <trkpt lon="99.693820" lat="12.932890">
                <ele>79.446045</ele>
                <time>2009-02-21T09:41:58Z</time>
            </trkpt>
            <trkpt lon="99.693827" lat="12.932788">
                <ele>79.446045</ele>
                <time>2009-02-21T09:42:02Z</time>
            </trkpt>
            <trkpt lon="99.694112" lat="12.932215">
                <ele>78.484741</ele>
                <time>2009-02-21T09:42:19Z</time>
            </trkpt>
            <trkpt lon="99.694320" lat="12.931508">
                <ele>78.484741</ele>
                <time>2009-02-21T09:42:35Z</time>
            </trkpt>
            <trkpt lon="99.694181" lat="12.931304">
                <ele>79.446045</ele>
                <time>2009-02-21T09:42:45Z</time>
            </trkpt>
            <trkpt lon="99.694017" lat="12.931249">
                <ele>79.926636</ele>
                <time>2009-02-21T09:42:51Z</time>
            </trkpt>
            <trkpt lon="99.694017" lat="12.931072">
                <ele>78.484741</ele>
                <time>2009-02-21T09:42:56Z</time>
            </trkpt>
            <trkpt lon="99.694086" lat="12.930904">
                <ele>78.004028</ele>
                <time>2009-02-21T09:43:00Z</time>
            </trkpt>
            <trkpt lon="99.694274" lat="12.930598">
                <ele>76.081421</ele>
                <time>2009-02-21T09:43:09Z</time>
            </trkpt>
            <trkpt lon="99.694376" lat="12.929892">
                <ele>75.600830</ele>
                <time>2009-02-21T09:43:22Z</time>
            </trkpt>
            <trkpt lon="99.694449" lat="12.928957">
                <ele>77.042847</ele>
                <time>2009-02-21T09:43:41Z</time>
            </trkpt>
            <trkpt lon="99.694464" lat="12.928805">
                <ele>76.562134</ele>
                <time>2009-02-21T09:43:44Z</time>
            </trkpt>
            <trkpt lon="99.694990" lat="12.928261">
                <ele>75.120239</ele>
                <time>2009-02-21T09:44:01Z</time>
            </trkpt>
            <trkpt lon="99.695156" lat="12.928191">
                <ele>74.639526</ele>
                <time>2009-02-21T09:44:04Z</time>
            </trkpt>
            <trkpt lon="99.695880" lat="12.928043">
                <ele>73.678223</ele>
                <time>2009-02-21T09:44:17Z</time>
            </trkpt>
            <trkpt lon="99.696183" lat="12.927906">
                <ele>73.678223</ele>
                <time>2009-02-21T09:44:23Z</time>
            </trkpt>
            <trkpt lon="99.696406" lat="12.927538">
                <ele>75.120239</ele>
                <time>2009-02-21T09:44:36Z</time>
            </trkpt>
            <trkpt lon="99.696561" lat="12.927438">
                <ele>74.639526</ele>
                <time>2009-02-21T09:44:41Z</time>
            </trkpt>
            <trkpt lon="99.696724" lat="12.927464">
                <ele>74.639526</ele>
                <time>2009-02-21T09:44:45Z</time>
            </trkpt>
            <trkpt lon="99.697684" lat="12.927822">
                <ele>74.158813</ele>
                <time>2009-02-21T09:45:06Z</time>
            </trkpt>
            <trkpt lon="99.697947" lat="12.927917">
                <ele>73.197632</ele>
                <time>2009-02-21T09:45:12Z</time>
            </trkpt>
            <trkpt lon="99.698192" lat="12.927756">
                <ele>73.197632</ele>
                <time>2009-02-21T09:45:19Z</time>
            </trkpt>
            <trkpt lon="99.698395" lat="12.927179">
                <ele>75.120239</ele>
                <time>2009-02-21T09:45:35Z</time>
            </trkpt>
            <trkpt lon="99.698722" lat="12.926210">
                <ele>75.600830</ele>
                <time>2009-02-21T09:45:57Z</time>
            </trkpt>
            <trkpt lon="99.698800" lat="12.926004">
                <ele>75.600830</ele>
                <time>2009-02-21T09:46:03Z</time>
            </trkpt>
            <trkpt lon="99.698872" lat="12.926014">
                <ele>75.600830</ele>
                <time>2009-02-21T09:46:08Z</time>
            </trkpt>
            <trkpt lon="99.699305" lat="12.926248">
                <ele>75.120239</ele>
                <time>2009-02-21T09:46:22Z</time>
            </trkpt>
            <trkpt lon="99.699976" lat="12.926631">
                <ele>74.158813</ele>
                <time>2009-02-21T09:46:41Z</time>
            </trkpt>
            <trkpt lon="99.700487" lat="12.926899">
                <ele>73.678223</ele>
                <time>2009-02-21T09:46:53Z</time>
            </trkpt>
            <trkpt lon="99.701357" lat="12.927411">
                <ele>72.716919</ele>
                <time>2009-02-21T09:47:14Z</time>
            </trkpt>
            <trkpt lon="99.702140" lat="12.927818">
                <ele>71.274902</ele>
                <time>2009-02-21T09:47:32Z</time>
            </trkpt>
            <trkpt lon="99.702862" lat="12.928230">
                <ele>68.390869</ele>
                <time>2009-02-21T09:47:48Z</time>
            </trkpt>
            <trkpt lon="99.703203" lat="12.928441">
                <ele>68.390869</ele>
                <time>2009-02-21T09:47:58Z</time>
            </trkpt>
            <trkpt lon="99.703777" lat="12.928789">
                <ele>66.948975</ele>
                <time>2009-02-21T09:48:11Z</time>
            </trkpt>
            <trkpt lon="99.704088" lat="12.928938">
                <ele>66.948975</ele>
                <time>2009-02-21T09:48:20Z</time>
            </trkpt>
            <trkpt lon="99.704408" lat="12.929114">
                <ele>69.352295</ele>
                <time>2009-02-21T09:48:34Z</time>
            </trkpt>
            <trkpt lon="99.704436" lat="12.929131">
                <ele>69.832886</ele>
                <time>2009-02-21T09:48:35Z</time>
            </trkpt>
            <trkpt lon="99.704470" lat="12.929265">
                <ele>69.832886</ele>
                <time>2009-02-21T09:48:39Z</time>
            </trkpt>
            <trkpt lon="99.704067" lat="12.929695">
                <ele>69.832886</ele>
                <time>2009-02-21T09:48:57Z</time>
            </trkpt>
            <trkpt lon="99.704063" lat="12.929892">
                <ele>70.313477</ele>
                <time>2009-02-21T09:49:02Z</time>
            </trkpt>
            <trkpt lon="99.704350" lat="12.930367">
                <ele>71.274902</ele>
                <time>2009-02-21T09:49:18Z</time>
            </trkpt>
            <trkpt lon="99.704564" lat="12.930479">
                <ele>71.274902</ele>
                <time>2009-02-21T09:49:26Z</time>
            </trkpt>
            <trkpt lon="99.704966" lat="12.930208">
                <ele>68.390869</ele>
                <time>2009-02-21T09:49:36Z</time>
            </trkpt>
            <trkpt lon="99.705432" lat="12.929899">
                <ele>68.871582</ele>
                <time>2009-02-21T09:49:50Z</time>
            </trkpt>
            <trkpt lon="99.705494" lat="12.929871">
                <ele>69.352295</ele>
                <time>2009-02-21T09:49:52Z</time>
            </trkpt>
            <trkpt lon="99.705700" lat="12.929975">
                <ele>69.352295</ele>
                <time>2009-02-21T09:49:59Z</time>
            </trkpt>
            <trkpt lon="99.706250" lat="12.930190">
                <ele>71.755493</ele>
                <time>2009-02-21T09:50:16Z</time>
            </trkpt>
            <trkpt lon="99.706474" lat="12.930301">
                <ele>74.158813</ele>
                <time>2009-02-21T09:50:29Z</time>
            </trkpt>
            <trkpt lon="99.706870" lat="12.930448">
                <ele>74.639526</ele>
                <time>2009-02-21T09:50:45Z</time>
            </trkpt>
            <trkpt lon="99.707548" lat="12.930531">
                <ele>74.158813</ele>
                <time>2009-02-21T09:51:03Z</time>
            </trkpt>
            <trkpt lon="99.707882" lat="12.930569">
                <ele>73.197632</ele>
                <time>2009-02-21T09:51:11Z</time>
            </trkpt>
            <trkpt lon="99.708635" lat="12.930699">
                <ele>69.832886</ele>
                <time>2009-02-21T09:51:26Z</time>
            </trkpt>
            <trkpt lon="99.709002" lat="12.930647">
                <ele>68.390869</ele>
                <time>2009-02-21T09:51:33Z</time>
            </trkpt>
            <trkpt lon="99.709716" lat="12.930813">
                <ele>67.429688</ele>
                <time>2009-02-21T09:51:48Z</time>
            </trkpt>
            <trkpt lon="99.710503" lat="12.931029">
                <ele>65.026367</ele>
                <time>2009-02-21T09:52:04Z</time>
            </trkpt>
            <trkpt lon="99.710661" lat="12.931092">
                <ele>64.545654</ele>
                <time>2009-02-21T09:52:08Z</time>
            </trkpt>
            <trkpt lon="99.710745" lat="12.931244">
                <ele>63.584351</ele>
                <time>2009-02-21T09:52:14Z</time>
            </trkpt>
            <trkpt lon="99.711045" lat="12.931439">
                <ele>61.661743</ele>
                <time>2009-02-21T09:52:26Z</time>
            </trkpt>
            <trkpt lon="99.711473" lat="12.931561">
                <ele>61.661743</ele>
                <time>2009-02-21T09:52:39Z</time>
            </trkpt>
            <trkpt lon="99.711562" lat="12.931615">
                <ele>61.661743</ele>
                <time>2009-02-21T09:52:44Z</time>
            </trkpt>
            <trkpt lon="99.711736" lat="12.931569">
                <ele>62.142334</ele>
                <time>2009-02-21T09:52:52Z</time>
            </trkpt>
            <trkpt lon="99.712291" lat="12.931806">
                <ele>63.103638</ele>
                <time>2009-02-21T09:53:10Z</time>
            </trkpt>
            <trkpt lon="99.712742" lat="12.932000">
                <ele>62.622925</ele>
                <time>2009-02-21T09:53:22Z</time>
            </trkpt>
            <trkpt lon="99.712960" lat="12.932077">
                <ele>62.622925</ele>
                <time>2009-02-21T09:53:28Z</time>
            </trkpt>
            <trkpt lon="99.713044" lat="12.931994">
                <ele>63.103638</ele>
                <time>2009-02-21T09:53:33Z</time>
            </trkpt>
            <trkpt lon="99.713009" lat="12.931827">
                <ele>62.622925</ele>
                <time>2009-02-21T09:53:38Z</time>
            </trkpt>
            <trkpt lon="99.712933" lat="12.930903">
                <ele>60.700317</ele>
                <time>2009-02-21T09:53:57Z</time>
            </trkpt>
            <trkpt lon="99.712815" lat="12.929958">
                <ele>60.700317</ele>
                <time>2009-02-21T09:54:16Z</time>
            </trkpt>
            <trkpt lon="99.712692" lat="12.929180">
                <ele>61.181030</ele>
                <time>2009-02-21T09:54:33Z</time>
            </trkpt>
            <trkpt lon="99.712719" lat="12.928630">
                <ele>60.219727</ele>
                <time>2009-02-21T09:54:43Z</time>
            </trkpt>
            <trkpt lon="99.712789" lat="12.927883">
                <ele>59.739136</ele>
                <time>2009-02-21T09:54:58Z</time>
            </trkpt>
            <trkpt lon="99.712859" lat="12.926946">
                <ele>58.297119</ele>
                <time>2009-02-21T09:55:17Z</time>
            </trkpt>
            <trkpt lon="99.712883" lat="12.926547">
                <ele>57.816528</ele>
                <time>2009-02-21T09:55:29Z</time>
            </trkpt>
            <trkpt lon="99.712957" lat="12.925634">
                <ele>57.816528</ele>
                <time>2009-02-21T09:55:48Z</time>
            </trkpt>
            <trkpt lon="99.713042" lat="12.924795">
                <ele>59.258423</ele>
                <time>2009-02-21T09:56:07Z</time>
            </trkpt>
            <trkpt lon="99.712936" lat="12.924603">
                <ele>60.700317</ele>
                <time>2009-02-21T09:56:16Z</time>
            </trkpt>
            <trkpt lon="99.712433" lat="12.924406">
                <ele>60.700317</ele>
                <time>2009-02-21T09:56:29Z</time>
            </trkpt>
            <trkpt lon="99.711530" lat="12.923956">
                <ele>59.258423</ele>
                <time>2009-02-21T09:56:49Z</time>
            </trkpt>
            <trkpt lon="99.710430" lat="12.923395">
                <ele>60.219727</ele>
                <time>2009-02-21T09:57:11Z</time>
            </trkpt>
            <trkpt lon="99.709320" lat="12.922846">
                <ele>61.181030</ele>
                <time>2009-02-21T09:57:33Z</time>
            </trkpt>
            <trkpt lon="99.708360" lat="12.922358">
                <ele>61.661743</ele>
                <time>2009-02-21T09:57:53Z</time>
            </trkpt>
            <trkpt lon="99.708228" lat="12.922266">
                <ele>61.661743</ele>
                <time>2009-02-21T09:57:57Z</time>
            </trkpt>
            <trkpt lon="99.708224" lat="12.922112">
                <ele>61.661743</ele>
                <time>2009-02-21T09:58:02Z</time>
            </trkpt>
            <trkpt lon="99.708469" lat="12.921568">
                <ele>63.584351</ele>
                <time>2009-02-21T09:58:19Z</time>
            </trkpt>
            <trkpt lon="99.708772" lat="12.920969">
                <ele>62.622925</ele>
                <time>2009-02-21T09:58:36Z</time>
            </trkpt>
            <trkpt lon="99.709077" lat="12.920421">
                <ele>63.103638</ele>
                <time>2009-02-21T09:58:51Z</time>
            </trkpt>
            <trkpt lon="99.709146" lat="12.920290">
                <ele>62.622925</ele>
                <time>2009-02-21T09:58:54Z</time>
            </trkpt>
            <trkpt lon="99.709423" lat="12.919827">
                <ele>63.584351</ele>
                <time>2009-02-21T09:59:04Z</time>
            </trkpt>
            <trkpt lon="99.709821" lat="12.919143">
                <ele>63.103638</ele>
                <time>2009-02-21T09:59:20Z</time>
            </trkpt>
            <trkpt lon="99.710198" lat="12.918486">
                <ele>64.065063</ele>
                <time>2009-02-21T09:59:38Z</time>
            </trkpt>
            <trkpt lon="99.710540" lat="12.917890">
                <ele>66.948975</ele>
                <time>2009-02-21T09:59:57Z</time>
            </trkpt>
            <trkpt lon="99.710926" lat="12.917280">
                <ele>69.352295</ele>
                <time>2009-02-21T10:00:16Z</time>
            </trkpt>
            <trkpt lon="99.711307" lat="12.916574">
                <ele>69.832886</ele>
                <time>2009-02-21T10:00:34Z</time>
            </trkpt>
            <trkpt lon="99.711630" lat="12.915965">
                <ele>66.948975</ele>
                <time>2009-02-21T10:00:47Z</time>
            </trkpt>
            <trkpt lon="99.711671" lat="12.915892">
                <ele>66.948975</ele>
                <time>2009-02-21T10:00:49Z</time>
            </trkpt>
            <trkpt lon="99.711718" lat="12.915820">
                <ele>66.468262</ele>
                <time>2009-02-21T10:00:51Z</time>
            </trkpt>
            <trkpt lon="99.711960" lat="12.915295">
                <ele>65.507080</ele>
                <time>2009-02-21T10:01:03Z</time>
            </trkpt>
            <trkpt lon="99.712468" lat="12.914452">
                <ele>64.065063</ele>
                <time>2009-02-21T10:01:21Z</time>
            </trkpt>
            <trkpt lon="99.712735" lat="12.913969">
                <ele>62.622925</ele>
                <time>2009-02-21T10:01:31Z</time>
            </trkpt>
            <trkpt lon="99.713104" lat="12.913379">
                <ele>63.103638</ele>
                <time>2009-02-21T10:01:46Z</time>
            </trkpt>
            <trkpt lon="99.713635" lat="12.912486">
                <ele>61.661743</ele>
                <time>2009-02-21T10:02:06Z</time>
            </trkpt>
            <trkpt lon="99.714121" lat="12.911720">
                <ele>59.739136</ele>
                <time>2009-02-21T10:02:22Z</time>
            </trkpt>
            <trkpt lon="99.714439" lat="12.911227">
                <ele>58.297119</ele>
                <time>2009-02-21T10:02:32Z</time>
            </trkpt>
            <trkpt lon="99.714743" lat="12.910489">
                <ele>58.297119</ele>
                <time>2009-02-21T10:02:46Z</time>
            </trkpt>
            <trkpt lon="99.714725" lat="12.910294">
                <ele>57.816528</ele>
                <time>2009-02-21T10:02:53Z</time>
            </trkpt>
            <trkpt lon="99.714713" lat="12.910142">
                <ele>57.816528</ele>
                <time>2009-02-21T10:02:58Z</time>
            </trkpt>
            <trkpt lon="99.714882" lat="12.909914">
                <ele>57.816528</ele>
                <time>2009-02-21T10:03:06Z</time>
            </trkpt>
            <trkpt lon="99.714783" lat="12.909838">
                <ele>58.297119</ele>
                <time>2009-02-21T10:03:11Z</time>
            </trkpt>
            <trkpt lon="99.714357" lat="12.909720">
                <ele>58.297119</ele>
                <time>2009-02-21T10:03:23Z</time>
            </trkpt>
            <trkpt lon="99.713886" lat="12.909467">
                <ele>59.739136</ele>
                <time>2009-02-21T10:03:39Z</time>
            </trkpt>
            <trkpt lon="99.713740" lat="12.909170">
                <ele>60.219727</ele>
                <time>2009-02-21T10:03:52Z</time>
            </trkpt>
            <trkpt lon="99.713613" lat="12.908867">
                <ele>61.661743</ele>
                <time>2009-02-21T10:04:04Z</time>
            </trkpt>
            <trkpt lon="99.713570" lat="12.908743">
                <ele>61.661743</ele>
                <time>2009-02-21T10:04:09Z</time>
            </trkpt>
            <trkpt lon="99.713489" lat="12.908711">
                <ele>61.181030</ele>
                <time>2009-02-21T10:04:13Z</time>
            </trkpt>
            <trkpt lon="99.713072" lat="12.908533">
                <ele>61.181030</ele>
                <time>2009-02-21T10:04:27Z</time>
            </trkpt>
            <trkpt lon="99.712601" lat="12.908304">
                <ele>64.065063</ele>
                <time>2009-02-21T10:04:42Z</time>
            </trkpt>
            <trkpt lon="99.712159" lat="12.908068">
                <ele>66.468262</ele>
                <time>2009-02-21T10:05:00Z</time>
            </trkpt>
            <trkpt lon="99.711776" lat="12.907903">
                <ele>68.390869</ele>
                <time>2009-02-21T10:05:15Z</time>
            </trkpt>
            <trkpt lon="99.711381" lat="12.907722">
                <ele>71.274902</ele>
                <time>2009-02-21T10:05:32Z</time>
            </trkpt>
            <trkpt lon="99.710974" lat="12.907536">
                <ele>73.678223</ele>
                <time>2009-02-21T10:05:50Z</time>
            </trkpt>
            <trkpt lon="99.710671" lat="12.907497">
                <ele>75.120239</ele>
                <time>2009-02-21T10:06:05Z</time>
            </trkpt>
            <trkpt lon="99.710651" lat="12.907500">
                <ele>75.120239</ele>
                <time>2009-02-21T10:06:06Z</time>
            </trkpt>
            <trkpt lon="99.710606" lat="12.907533">
                <ele>76.081421</ele>
                <time>2009-02-21T10:06:18Z</time>
            </trkpt>
            <trkpt lon="99.710565" lat="12.907529">
                <ele>77.042847</ele>
                <time>2009-02-21T10:06:31Z</time>
            </trkpt>
            <trkpt lon="99.710521" lat="12.907517">
                <ele>77.042847</ele>
                <time>2009-02-21T10:06:35Z</time>
            </trkpt>
            <trkpt lon="99.710487" lat="12.907512">
                <ele>77.042847</ele>
                <time>2009-02-21T10:06:50Z</time>
            </trkpt>
            <trkpt lon="99.710167" lat="12.907465">
                <ele>77.523438</ele>
                <time>2009-02-21T10:07:04Z</time>
            </trkpt>
            <trkpt lon="99.709704" lat="12.907400">
                <ele>78.484741</ele>
                <time>2009-02-21T10:07:23Z</time>
            </trkpt>
            <trkpt lon="99.709365" lat="12.907318">
                <ele>77.523438</ele>
                <time>2009-02-21T10:07:37Z</time>
            </trkpt>
            <trkpt lon="99.708763" lat="12.907213">
                <ele>79.446045</ele>
                <time>2009-02-21T10:07:53Z</time>
            </trkpt>
            <trkpt lon="99.708469" lat="12.907089">
                <ele>80.407471</ele>
                <time>2009-02-21T10:08:04Z</time>
            </trkpt>
            <trkpt lon="99.708105" lat="12.906942">
                <ele>80.888184</ele>
                <time>2009-02-21T10:08:15Z</time>
            </trkpt>
            <trkpt lon="99.707778" lat="12.906778">
                <ele>80.888184</ele>
                <time>2009-02-21T10:08:24Z</time>
            </trkpt>
            <trkpt lon="99.707430" lat="12.906812">
                <ele>77.042847</ele>
                <time>2009-02-21T10:08:35Z</time>
            </trkpt>
            <trkpt lon="99.706706" lat="12.906774">
                <ele>73.197632</ele>
                <time>2009-02-21T10:08:47Z</time>
            </trkpt>
            <trkpt lon="99.705871" lat="12.906684">
                <ele>73.197632</ele>
                <time>2009-02-21T10:09:01Z</time>
            </trkpt>
            <trkpt lon="99.705322" lat="12.906598">
                <ele>73.678223</ele>
                <time>2009-02-21T10:09:14Z</time>
            </trkpt>
            <trkpt lon="99.705119" lat="12.906638">
                <ele>73.197632</ele>
                <time>2009-02-21T10:09:19Z</time>
            </trkpt>
            <trkpt lon="99.705000" lat="12.906679">
                <ele>73.197632</ele>
                <time>2009-02-21T10:09:22Z</time>
            </trkpt>
            <trkpt lon="99.704372" lat="12.906737">
                <ele>70.794190</ele>
                <time>2009-02-21T10:09:36Z</time>
            </trkpt>
            <trkpt lon="99.703867" lat="12.906642">
                <ele>68.871582</ele>
                <time>2009-02-21T10:09:48Z</time>
            </trkpt>
            <trkpt lon="99.703774" lat="12.906402">
                <ele>70.313477</ele>
                <time>2009-02-21T10:09:57Z</time>
            </trkpt>
            <trkpt lon="99.703751" lat="12.906118">
                <ele>72.716919</ele>
                <time>2009-02-21T10:10:09Z</time>
            </trkpt>
            <trkpt lon="99.703741" lat="12.905643">
                <ele>75.600830</ele>
                <time>2009-02-21T10:10:26Z</time>
            </trkpt>
            <trkpt lon="99.703692" lat="12.905147">
                <ele>77.523438</ele>
                <time>2009-02-21T10:10:43Z</time>
            </trkpt>
            <trkpt lon="99.703528" lat="12.904919">
                <ele>77.042847</ele>
                <time>2009-02-21T10:10:52Z</time>
            </trkpt>
            <trkpt lon="99.703401" lat="12.904896">
                <ele>76.081421</ele>
                <time>2009-02-21T10:10:55Z</time>
            </trkpt>
            <trkpt lon="99.702711" lat="12.904700">
                <ele>73.197632</ele>
                <time>2009-02-21T10:11:09Z</time>
            </trkpt>
            <trkpt lon="99.702583" lat="12.904637">
                <ele>72.236206</ele>
                <time>2009-02-21T10:11:13Z</time>
            </trkpt>
            <trkpt lon="99.702546" lat="12.904279">
                <ele>71.274902</ele>
                <time>2009-02-21T10:11:23Z</time>
            </trkpt>
            <trkpt lon="99.702530" lat="12.903688">
                <ele>72.716919</ele>
                <time>2009-02-21T10:11:39Z</time>
            </trkpt>
            <trkpt lon="99.702567" lat="12.903315">
                <ele>74.639526</ele>
                <time>2009-02-21T10:11:51Z</time>
            </trkpt>
            <trkpt lon="99.702617" lat="12.902940">
                <ele>76.081421</ele>
                <time>2009-02-21T10:12:04Z</time>
            </trkpt>
            <trkpt lon="99.702679" lat="12.902485">
                <ele>77.523438</ele>
                <time>2009-02-21T10:12:21Z</time>
            </trkpt>
            <trkpt lon="99.702797" lat="12.901971">
                <ele>79.926636</ele>
                <time>2009-02-21T10:12:40Z</time>
            </trkpt>
            <trkpt lon="99.702943" lat="12.901334">
                <ele>78.965454</ele>
                <time>2009-02-21T10:12:58Z</time>
            </trkpt>
            <trkpt lon="99.703026" lat="12.900920">
                <ele>79.446045</ele>
                <time>2009-02-21T10:13:09Z</time>
            </trkpt>
            <trkpt lon="99.703106" lat="12.900641">
                <ele>79.446045</ele>
                <time>2009-02-21T10:13:17Z</time>
            </trkpt>
            <trkpt lon="99.703158" lat="12.900051">
                <ele>79.926636</ele>
                <time>2009-02-21T10:13:32Z</time>
            </trkpt>
            <trkpt lon="99.703194" lat="12.899847">
                <ele>80.888184</ele>
                <time>2009-02-21T10:13:37Z</time>
            </trkpt>
            <trkpt lon="99.703205" lat="12.899762">
                <ele>80.407471</ele>
                <time>2009-02-21T10:13:39Z</time>
            </trkpt>
            <trkpt lon="99.703388" lat="12.899071">
                <ele>81.849365</ele>
                <time>2009-02-21T10:13:58Z</time>
            </trkpt>
            <trkpt lon="99.703358" lat="12.898961">
                <ele>82.330078</ele>
                <time>2009-02-21T10:14:03Z</time>
            </trkpt>
            <trkpt lon="99.702876" lat="12.898866">
                <ele>82.810791</ele>
                <time>2009-02-21T10:14:18Z</time>
            </trkpt>
            <trkpt lon="99.702039" lat="12.898718">
                <ele>84.733398</ele>
                <time>2009-02-21T10:14:40Z</time>
            </trkpt>
            <trkpt lon="99.701174" lat="12.898572">
                <ele>86.175293</ele>
                <time>2009-02-21T10:15:01Z</time>
            </trkpt>
            <trkpt lon="99.700667" lat="12.898489">
                <ele>86.175293</ele>
                <time>2009-02-21T10:15:12Z</time>
            </trkpt>
            <trkpt lon="99.700511" lat="12.898362">
                <ele>86.175293</ele>
                <time>2009-02-21T10:15:17Z</time>
            </trkpt>
            <trkpt lon="99.700243" lat="12.898056">
                <ele>86.656006</ele>
                <time>2009-02-21T10:15:28Z</time>
            </trkpt>
            <trkpt lon="99.699888" lat="12.897691">
                <ele>87.136597</ele>
                <time>2009-02-21T10:15:42Z</time>
            </trkpt>
            <trkpt lon="99.699597" lat="12.897600">
                <ele>86.656006</ele>
                <time>2009-02-21T10:15:53Z</time>
            </trkpt>
            <trkpt lon="99.699559" lat="12.897558">
                <ele>87.136597</ele>
                <time>2009-02-21T10:15:55Z</time>
            </trkpt>
            <trkpt lon="99.699367" lat="12.897386">
                <ele>87.617188</ele>
                <time>2009-02-21T10:16:05Z</time>
            </trkpt>
            <trkpt lon="99.699305" lat="12.897182">
                <ele>86.656006</ele>
                <time>2009-02-21T10:16:12Z</time>
            </trkpt>
            <trkpt lon="99.699246" lat="12.896756">
                <ele>84.733398</ele>
                <time>2009-02-21T10:16:24Z</time>
            </trkpt>
            <trkpt lon="99.699084" lat="12.896412">
                <ele>83.291382</ele>
                <time>2009-02-21T10:16:35Z</time>
            </trkpt>
            <trkpt lon="99.699103" lat="12.896100">
                <ele>86.175293</ele>
                <time>2009-02-21T10:16:47Z</time>
            </trkpt>
            <trkpt lon="99.698825" lat="12.895625">
                <ele>85.213989</ele>
                <time>2009-02-21T10:17:03Z</time>
            </trkpt>
            <trkpt lon="99.698355" lat="12.895320">
                <ele>83.291382</ele>
                <time>2009-02-21T10:17:17Z</time>
            </trkpt>
            <trkpt lon="99.698288" lat="12.895265">
                <ele>82.810791</ele>
                <time>2009-02-21T10:17:19Z</time>
            </trkpt>
            <trkpt lon="99.697919" lat="12.895069">
                <ele>82.810791</ele>
                <time>2009-02-21T10:17:30Z</time>
            </trkpt>
            <trkpt lon="99.697790" lat="12.894913">
                <ele>82.810791</ele>
                <time>2009-02-21T10:17:37Z</time>
            </trkpt>
            <trkpt lon="99.697264" lat="12.894775">
                <ele>83.291382</ele>
                <time>2009-02-21T10:17:52Z</time>
            </trkpt>
            <trkpt lon="99.696552" lat="12.894580">
                <ele>80.407471</ele>
                <time>2009-02-21T10:18:08Z</time>
            </trkpt>
            <trkpt lon="99.696524" lat="12.894583">
                <ele>80.407471</ele>
                <time>2009-02-21T10:18:09Z</time>
            </trkpt>
            <trkpt lon="99.696415" lat="12.894749">
                <ele>79.926636</ele>
                <time>2009-02-21T10:18:15Z</time>
            </trkpt>
            <trkpt lon="99.696164" lat="12.895186">
                <ele>82.330078</ele>
                <time>2009-02-21T10:18:30Z</time>
            </trkpt>
            <trkpt lon="99.695984" lat="12.895484">
                <ele>83.291382</ele>
                <time>2009-02-21T10:18:41Z</time>
            </trkpt>
            <trkpt lon="99.695781" lat="12.895435">
                <ele>80.888184</ele>
                <time>2009-02-21T10:18:47Z</time>
            </trkpt>
            <trkpt lon="99.695567" lat="12.895331">
                <ele>79.446045</ele>
                <time>2009-02-21T10:18:53Z</time>
            </trkpt>
            <trkpt lon="99.694874" lat="12.895068">
                <ele>73.197632</ele>
                <time>2009-02-21T10:19:07Z</time>
            </trkpt>
            <trkpt lon="99.694488" lat="12.894969">
                <ele>71.274902</ele>
                <time>2009-02-21T10:19:18Z</time>
            </trkpt>
            <trkpt lon="99.694417" lat="12.894972">
                <ele>71.755493</ele>
                <time>2009-02-21T10:19:21Z</time>
            </trkpt>
            <trkpt lon="99.694341" lat="12.895055">
                <ele>71.755493</ele>
                <time>2009-02-21T10:19:26Z</time>
            </trkpt>
            <trkpt lon="99.694121" lat="12.895217">
                <ele>71.274902</ele>
                <time>2009-02-21T10:19:38Z</time>
            </trkpt>
            <trkpt lon="99.694162" lat="12.895372">
                <ele>72.236206</ele>
                <time>2009-02-21T10:19:45Z</time>
            </trkpt>
            <trkpt lon="99.694172" lat="12.895455">
                <ele>72.716919</ele>
                <time>2009-02-21T10:19:48Z</time>
            </trkpt>
            <trkpt lon="99.694008" lat="12.895475">
                <ele>74.158813</ele>
                <time>2009-02-21T10:19:55Z</time>
            </trkpt>
            <trkpt lon="99.693443" lat="12.895399">
                <ele>76.081421</ele>
                <time>2009-02-21T10:20:15Z</time>
            </trkpt>
            <trkpt lon="99.693091" lat="12.895350">
                <ele>76.081421</ele>
                <time>2009-02-21T10:20:27Z</time>
            </trkpt>
            <trkpt lon="99.692912" lat="12.895693">
                <ele>76.562134</ele>
                <time>2009-02-21T10:20:40Z</time>
            </trkpt>
            <trkpt lon="99.692746" lat="12.896130">
                <ele>78.004028</ele>
                <time>2009-02-21T10:20:56Z</time>
            </trkpt>
            <trkpt lon="99.692580" lat="12.896581">
                <ele>79.446045</ele>
                <time>2009-02-21T10:21:14Z</time>
            </trkpt>
            <trkpt lon="99.692390" lat="12.897075">
                <ele>79.446045</ele>
                <time>2009-02-21T10:21:28Z</time>
            </trkpt>
            <trkpt lon="99.692241" lat="12.897569">
                <ele>78.965454</ele>
                <time>2009-02-21T10:21:39Z</time>
            </trkpt>
            <trkpt lon="99.692207" lat="12.897774">
                <ele>79.926636</ele>
                <time>2009-02-21T10:21:45Z</time>
            </trkpt>
            <trkpt lon="99.692102" lat="12.898298">
                <ele>83.291382</ele>
                <time>2009-02-21T10:22:04Z</time>
            </trkpt>
            <trkpt lon="99.691969" lat="12.898808">
                <ele>87.136597</ele>
                <time>2009-02-21T10:22:24Z</time>
            </trkpt>
            <trkpt lon="99.691730" lat="12.899315">
                <ele>85.213989</ele>
                <time>2009-02-21T10:22:38Z</time>
            </trkpt>
            <trkpt lon="99.691683" lat="12.899462">
                <ele>84.733398</ele>
                <time>2009-02-21T10:22:42Z</time>
            </trkpt>
            <trkpt lon="99.691551" lat="12.899523">
                <ele>84.733398</ele>
                <time>2009-02-21T10:22:52Z</time>
            </trkpt>
            <trkpt lon="99.691475" lat="12.899517">
                <ele>83.291382</ele>
                <time>2009-02-21T10:23:05Z</time>
            </trkpt>
            <trkpt lon="99.691422" lat="12.899569">
                <ele>83.291382</ele>
                <time>2009-02-21T10:23:09Z</time>
            </trkpt>
            <trkpt lon="99.691130" lat="12.899821">
                <ele>82.330078</ele>
                <time>2009-02-21T10:23:20Z</time>
            </trkpt>
            <trkpt lon="99.690637" lat="12.900237">
                <ele>81.368774</ele>
                <time>2009-02-21T10:23:35Z</time>
            </trkpt>
            <trkpt lon="99.689960" lat="12.900831">
                <ele>81.849365</ele>
                <time>2009-02-21T10:23:53Z</time>
            </trkpt>
            <trkpt lon="99.689282" lat="12.901207">
                <ele>81.849365</ele>
                <time>2009-02-21T10:24:09Z</time>
            </trkpt>
            <trkpt lon="99.688816" lat="12.901867">
                <ele>83.291382</ele>
                <time>2009-02-21T10:24:25Z</time>
            </trkpt>
            <trkpt lon="99.688357" lat="12.902688">
                <ele>85.694580</ele>
                <time>2009-02-21T10:24:44Z</time>
            </trkpt>
            <trkpt lon="99.688098" lat="12.902798">
                <ele>86.175293</ele>
                <time>2009-02-21T10:24:50Z</time>
            </trkpt>
            <trkpt lon="99.687139" lat="12.902734">
                <ele>86.656006</ele>
                <time>2009-02-21T10:25:09Z</time>
            </trkpt>
            <trkpt lon="99.686957" lat="12.902787">
                <ele>86.656006</ele>
                <time>2009-02-21T10:25:13Z</time>
            </trkpt>
            <trkpt lon="99.686316" lat="12.903169">
                <ele>88.098022</ele>
                <time>2009-02-21T10:25:30Z</time>
            </trkpt>
            <trkpt lon="99.685510" lat="12.903730">
                <ele>89.059326</ele>
                <time>2009-02-21T10:25:53Z</time>
            </trkpt>
            <trkpt lon="99.685475" lat="12.903753">
                <ele>89.059326</ele>
                <time>2009-02-21T10:25:54Z</time>
            </trkpt>
            <trkpt lon="99.684704" lat="12.904245">
                <ele>92.423950</ele>
                <time>2009-02-21T10:26:16Z</time>
            </trkpt>
            <trkpt lon="99.684085" lat="12.904486">
                <ele>94.346558</ele>
                <time>2009-02-21T10:26:32Z</time>
            </trkpt>
            <trkpt lon="99.683169" lat="12.904590">
                <ele>96.269287</ele>
                <time>2009-02-21T10:26:54Z</time>
            </trkpt>
            <trkpt lon="99.683049" lat="12.904606">
                <ele>96.749878</ele>
                <time>2009-02-21T10:26:58Z</time>
            </trkpt>
            <trkpt lon="99.682969" lat="12.904446">
                <ele>96.749878</ele>
                <time>2009-02-21T10:27:03Z</time>
            </trkpt>
            <trkpt lon="99.682924" lat="12.903916">
                <ele>96.269287</ele>
                <time>2009-02-21T10:27:14Z</time>
            </trkpt>
            <trkpt lon="99.682972" lat="12.903157">
                <ele>95.788452</ele>
                <time>2009-02-21T10:27:28Z</time>
            </trkpt>
            <trkpt lon="99.682951" lat="12.902993">
                <ele>96.749878</ele>
                <time>2009-02-21T10:27:34Z</time>
            </trkpt>
            <trkpt lon="99.682853" lat="12.902968">
                <ele>96.749878</ele>
                <time>2009-02-21T10:27:36Z</time>
            </trkpt>
            <trkpt lon="99.682205" lat="12.902513">
                <ele>96.749878</ele>
                <time>2009-02-21T10:27:51Z</time>
            </trkpt>
            <trkpt lon="99.681558" lat="12.901878">
                <ele>98.191895</ele>
                <time>2009-02-21T10:28:11Z</time>
            </trkpt>
            <trkpt lon="99.681346" lat="12.901274">
                <ele>100.114502</ele>
                <time>2009-02-21T10:28:28Z</time>
            </trkpt>
            <trkpt lon="99.681188" lat="12.901120">
                <ele>100.114502</ele>
                <time>2009-02-21T10:28:33Z</time>
            </trkpt>
            <trkpt lon="99.681132" lat="12.900965">
                <ele>100.114502</ele>
                <time>2009-02-21T10:28:37Z</time>
            </trkpt>
            <trkpt lon="99.681147" lat="12.900872">
                <ele>100.114502</ele>
                <time>2009-02-21T10:28:39Z</time>
            </trkpt>
            <trkpt lon="99.681182" lat="12.900773">
                <ele>99.633789</ele>
                <time>2009-02-21T10:28:41Z</time>
            </trkpt>
            <trkpt lon="99.681332" lat="12.900444">
                <ele>98.672485</ele>
                <time>2009-02-21T10:28:48Z</time>
            </trkpt>
            <trkpt lon="99.681282" lat="12.900258">
                <ele>98.191895</ele>
                <time>2009-02-21T10:28:53Z</time>
            </trkpt>
            <trkpt lon="99.680566" lat="12.900026">
                <ele>97.711182</ele>
                <time>2009-02-21T10:29:11Z</time>
            </trkpt>
            <trkpt lon="99.680451" lat="12.899869">
                <ele>98.191895</ele>
                <time>2009-02-21T10:29:22Z</time>
            </trkpt>
            <trkpt lon="99.680437" lat="12.899862">
                <ele>102.998291</ele>
                <time>2009-02-21T10:29:49Z</time>
            </trkpt>
            <trkpt lon="99.680454" lat="12.899881">
                <ele>103.479004</ele>
                <time>2009-02-21T10:30:15Z</time>
            </trkpt>
            <trkpt lon="99.680583" lat="12.900064">
                <ele>102.037109</ele>
                <time>2009-02-21T10:30:24Z</time>
            </trkpt>
            <trkpt lon="99.680663" lat="12.899987">
                <ele>101.556397</ele>
                <time>2009-02-21T10:30:28Z</time>
            </trkpt>
            <trkpt lon="99.680642" lat="12.899491">
                <ele>100.114502</ele>
                <time>2009-02-21T10:30:42Z</time>
            </trkpt>
            <trkpt lon="99.680621" lat="12.899430">
                <ele>100.595093</ele>
                <time>2009-02-21T10:30:44Z</time>
            </trkpt>
            <trkpt lon="99.680702" lat="12.899307">
                <ele>101.556397</ele>
                <time>2009-02-21T10:30:48Z</time>
            </trkpt>
            <trkpt lon="99.680950" lat="12.898976">
                <ele>101.556397</ele>
                <time>2009-02-21T10:30:58Z</time>
            </trkpt>
            <trkpt lon="99.680980" lat="12.898948">
                <ele>102.037109</ele>
                <time>2009-02-21T10:30:59Z</time>
            </trkpt>
            <trkpt lon="99.681093" lat="12.898856">
                <ele>101.556397</ele>
                <time>2009-02-21T10:31:03Z</time>
            </trkpt>
            <trkpt lon="99.681057" lat="12.898729">
                <ele>102.037109</ele>
                <time>2009-02-21T10:31:08Z</time>
            </trkpt>
            <trkpt lon="99.681066" lat="12.898692">
                <ele>103.959717</ele>
                <time>2009-02-21T10:31:18Z</time>
            </trkpt>
        </trkseg>
    </trk>
</gpx>